Darstellungsparameter: Aktuell verwendete Einstellungen:
Skalierung der Graphiken ... ?
xyx+y,   Skalierungsfaktor:      Skalierung: Modus: x, Faktor: 1
Darstellungszeitraum ... ?
Vom - - bis: - -   Zeitraum: 23.07.2008 - 12.08.2008
Min/Max/Avg-Anzeige ... ?
Zeige MMA aktuell
Zeige MMA Monat
Zeige MMA alles
Zeige --A aktuell
Zeige --A Monat
Zeige --A alles
Keine MMA-Anzeige
MMA:
Average (ber die Originaldaten)
MMA-Basis: 17.04.2019 - 19.05.2019
Quicknavigation für Darstellung... ?
Tage:      1T, 2T, 3T, 5T -1T -2T -3T -5T +1T +2T +3T +5T
Wochen: 1W, 2W, 3W -1W -2W -3W +1W +2W +3W
Monate: 1M, 3M, 6M -1M -3M -6M +1M +3M +6M
Jahre:    1J, 3J, 5J, 10J -1J -3J -5J -10J +1J +3J +5J +10J
Nutze für die Darstellung ... ?
Originaldaten oder Mittelwerte auf ...
Stundenbasis Tagesbasis Wochenbasis
Monatsbasis Jahresbasis      Datenbasis: Original-Daten
Darstellen als:
Statistik (Auto) Statistik J:M      Darstellung:
Zur Graphik,    zurück zur Übersicht aller Sensoren.
 
Tabellarische Datenbersicht: ?
 
Sensor: Nr:Datum:Temp:Abs-Feuchte:Windchill:Wind:
Aussen-T/F 1 23-07-2008 00:05:21 13.1 C 9.36 g/m*3 13.1 C 0 km/h
2 23-07-2008 00:35:21 13 C 9.41 g/m*3 13 C 0 km/h
3 23-07-2008 01:05:21 12.5 C 9.24 g/m*3 12.5 C 0 km/h
4 23-07-2008 01:35:22 12 C 9.06 g/m*3 12 C 0 km/h
5 23-07-2008 02:05:22 11.6 C 9.04 g/m*3 11.6 C 0 km/h
6 23-07-2008 02:35:22 11.3 C 8.87 g/m*3 11.3 C 0 km/h
7 23-07-2008 03:05:22 11.2 C 9.02 g/m*3 11.2 C 0 km/h
8 23-07-2008 03:35:22 10.7 C 8.74 g/m*3 10.7 C 0 km/h
9 23-07-2008 04:05:22 10.4 C 8.58 g/m*3 10.4 C 0 km/h
10 23-07-2008 04:35:22 10.4 C 8.77 g/m*3 10.4 C 0 km/h
11 23-07-2008 05:05:22 10.5 C 8.92 g/m*3 10.5 C 0 km/h
12 23-07-2008 05:35:22 10.7 C 9.04 g/m*3 10.7 C 0 km/h
13 23-07-2008 06:05:22 10.8 C 9.09 g/m*3 10.8 C 0 km/h
14 23-07-2008 06:35:22 10.8 C 9.09 g/m*3 10.8 C 0 km/h
15 23-07-2008 07:05:22 10.5 C 8.92 g/m*3 10.5 C 0 km/h
16 23-07-2008 07:35:22 10.8 C 8.99 g/m*3 10.8 C 0 km/h
17 23-07-2008 08:05:22 10.9 C 8.85 g/m*3 10.9 C 0 km/h
18 23-07-2008 08:35:22 11.8 C 9.16 g/m*3 11.8 C 0 km/h
19 23-07-2008 09:05:22 12.9 C 9.13 g/m*3 12.9 C 0 km/h
20 23-07-2008 09:35:22 12.8 C 9.18 g/m*3 12.8 C 0 km/h
21 23-07-2008 10:05:22 15.4 C 9.46 g/m*3 15.4 C 0 km/h
22 23-07-2008 10:35:22 17 C 9.69 g/m*3 17 C 0 km/h
23 23-07-2008 11:05:22 18.1 C 9.73 g/m*3 18.1 C 0 km/h
24 23-07-2008 11:35:22 19.4 C 9.18 g/m*3 19.4 C 0 km/h
25 23-07-2008 12:05:23 21.1 C 8.29 g/m*3 21.1 C 0 km/h
Sensor: Nr:Datum:Temp:Abs-Feuchte:Windchill:Wind:
Aussen-T/F 26 23-07-2008 12:35:23 22.2 C 8.25 g/m*3 22.2 C 0 km/h
27 23-07-2008 13:05:23 23.9 C 7.36 g/m*3 23.9 C 0 km/h
28 23-07-2008 13:35:23 25.9 C 7.26 g/m*3 25.9 C 0 km/h
29 23-07-2008 14:05:23 26 C 6.09 g/m*3 26 C 0 km/h
30 23-07-2008 14:35:23 25.7 C 7.18 g/m*3 25.7 C 0 km/h
31 23-07-2008 15:05:23 26.3 C 6.93 g/m*3 26.3 C 0 km/h
32 23-07-2008 15:35:23 28.9 C 7.14 g/m*3 28.9 C 0 km/h
33 23-07-2008 16:05:23 29.2 C 6.97 g/m*3 29.2 C 0 km/h
34 23-07-2008 16:35:23 29.2 C 6.39 g/m*3 29.2 C 0 km/h
35 23-07-2008 17:05:23 30.1 C 6.1 g/m*3 30.1 C 0 km/h
36 23-07-2008 17:35:23 29.3 C 6.42 g/m*3 29.3 C 0 km/h
37 23-07-2008 18:05:23 28.8 C 6.53 g/m*3 28.8 C 0 km/h
38 23-07-2008 18:35:23 30 C 6.67 g/m*3 30 C 0 km/h
39 23-07-2008 19:05:23 27.9 C 6.76 g/m*3 27.9 C 0 km/h
40 23-07-2008 19:35:23 28.7 C 7.06 g/m*3 28.7 C 0 km/h
41 23-07-2008 20:05:23 27.8 C 6.99 g/m*3 27.8 C 0 km/h
42 23-07-2008 20:35:23 25.2 C 7.68 g/m*3 25.2 C 0 km/h
43 23-07-2008 21:05:23 23.6 C 8.51 g/m*3 23.6 C 0 km/h
44 23-07-2008 21:35:23 22.5 C 9.39 g/m*3 22.5 C 0 km/h
45 23-07-2008 22:05:24 20.7 C 9.54 g/m*3 20.7 C 0 km/h
46 23-07-2008 22:35:24 19.9 C 9.62 g/m*3 19.9 C 0 km/h
47 23-07-2008 23:05:24 19.2 C 9.56 g/m*3 19.2 C 0 km/h
48 23-07-2008 23:35:24 18.6 C 9.55 g/m*3 18.6 C 0 km/h
49 24-07-2008 00:05:24 18.1 C 9.89 g/m*3 18.1 C 0 km/h
50 24-07-2008 00:35:24 17.5 C 9.24 g/m*3 17.5 C 0 km/h
Sensor: Nr:Datum:Temp:Abs-Feuchte:Windchill:Wind:
Aussen-T/F 51 24-07-2008 01:05:24 16.8 C 9.01 g/m*3 16.8 C 0 km/h
52 24-07-2008 01:35:24 16.3 C 8.88 g/m*3 16.3 C 0 km/h
53 24-07-2008 02:05:24 15.9 C 8.94 g/m*3 15.9 C 0 km/h
54 24-07-2008 02:35:24 15.4 C 8.93 g/m*3 15.4 C 0 km/h
55 24-07-2008 03:05:24 14.8 C 8.99 g/m*3 14.8 C 0 km/h
56 24-07-2008 03:35:24 14.7 C 9.19 g/m*3 14.7 C 0 km/h
57 24-07-2008 04:05:24 14.1 C 9.1 g/m*3 14.1 C 0 km/h
58 24-07-2008 04:35:24 13.7 C 9.12 g/m*3 13.7 C 0 km/h
59 24-07-2008 05:05:24 13.3 C 9.01 g/m*3 13.3 C 0 km/h
60 24-07-2008 05:35:24 13 C 8.96 g/m*3 13 C 0 km/h
61 24-07-2008 06:05:24 12.8 C 9.07 g/m*3 12.8 C 0 km/h
62 24-07-2008 06:35:24 12.8 C 9.07 g/m*3 12.8 C 0 km/h
63 24-07-2008 07:05:24 12.9 C 9.24 g/m*3 12.9 C 0 km/h
64 24-07-2008 07:35:24 13.1 C 9.24 g/m*3 13.1 C 0 km/h
65 24-07-2008 08:05:24 13.6 C 9.53 g/m*3 13.6 C 0 km/h
66 24-07-2008 08:35:25 14.3 C 9.71 g/m*3 14.3 C 0 km/h
67 24-07-2008 09:05:25 15.4 C 10.25 g/m*3 15.4 C 0 km/h
68 24-07-2008 09:35:25 17 C 10.13 g/m*3 17 C 0 km/h
69 24-07-2008 10:05:25 18.9 C 10.04 g/m*3 18.9 C 0 km/h
70 24-07-2008 10:35:25 20.8 C 8.87 g/m*3 20.8 C 0 km/h
71 24-07-2008 11:05:25 22.4 C 8.34 g/m*3 22.4 C 0 km/h
72 24-07-2008 11:35:25 23.1 C 7.65 g/m*3 23.1 C 0 km/h
73 24-07-2008 12:05:25 24.5 C 7.83 g/m*3 24.5 C 0 km/h
74 24-07-2008 12:35:25 26.5 C 7.01 g/m*3 26.5 C 0 km/h
75 24-07-2008 13:05:25 25.7 C 6.46 g/m*3 25.7 C 0 km/h
Sensor: Nr:Datum:Temp:Abs-Feuchte:Windchill:Wind:
Aussen-T/F 76 24-07-2008 13:35:25 29 C 6.32 g/m*3 29 C 0 km/h
77 24-07-2008 14:05:25 28.8 C 5.97 g/m*3 28.8 C 0 km/h
78 24-07-2008 14:35:25 28.3 C 6.36 g/m*3 28.3 C 0 km/h
79 24-07-2008 15:05:25 29.9 C 6.03 g/m*3 29.9 C 0 km/h
80 24-07-2008 15:35:25 30.7 C 6.3 g/m*3 30.7 C 0 km/h
81 24-07-2008 16:05:25 31 C 6.4 g/m*3 31 C 0 km/h
82 24-07-2008 16:35:25 31.4 C 6.54 g/m*3 31.4 C 0 km/h
83 24-07-2008 17:05:25 31.6 C 6.61 g/m*3 31.6 C 0 km/h
84 24-07-2008 17:35:25 32.1 C 6.79 g/m*3 32.1 C 0 km/h
85 24-07-2008 18:05:26 32.3 C 6.86 g/m*3 32.3 C 0 km/h
86 24-07-2008 18:35:26 32.3 C 6.86 g/m*3 32.3 C 0 km/h
87 24-07-2008 19:05:26 32.3 C 6.86 g/m*3 32.3 C 0 km/h
88 24-07-2008 19:35:26 31.6 C 6.61 g/m*3 31.6 C 0 km/h
89 24-07-2008 20:05:26 31.2 C 6.47 g/m*3 31.2 C 0 km/h
90 24-07-2008 20:35:26 30.3 C 7.4 g/m*3 30.3 C 0 km/h
91 24-07-2008 21:05:26 27.1 C 7.76 g/m*3 27.1 C 0 km/h
92 24-07-2008 21:35:26 25 C 7.37 g/m*3 25 C 0 km/h
93 24-07-2008 22:05:26 23.7 C 7.7 g/m*3 23.7 C 0 km/h
94 24-07-2008 22:35:26 22.7 C 7.88 g/m*3 22.7 C 0 km/h
95 24-07-2008 23:05:26 22.2 C 8.05 g/m*3 22.2 C 0 km/h
96 24-07-2008 23:35:26 21.8 C 8.25 g/m*3 21.8 C 0 km/h
97 25-07-2008 00:05:26 21.2 C 8.15 g/m*3 21.2 C 0 km/h
98 25-07-2008 00:35:26 20.9 C 8.38 g/m*3 20.9 C 0 km/h
99 25-07-2008 01:05:26 20.2 C 8.22 g/m*3 20.2 C 0 km/h
100 25-07-2008 01:35:26 19.9 C 8.42 g/m*3 19.9 C 0 km/h
Sensor: Nr:Datum:Temp:Abs-Feuchte:Windchill:Wind:
Aussen-T/F 101 25-07-2008 02:05:26 19.5 C 8.22 g/m*3 19.5 C 0 km/h
102 25-07-2008 02:35:26 19.1 C 8.36 g/m*3 19.1 C 0 km/h
103 25-07-2008 03:05:26 18.5 C 8.54 g/m*3 18.5 C 0 km/h
104 25-07-2008 03:35:26 18.1 C 8.65 g/m*3 18.1 C 0 km/h
105 25-07-2008 04:05:27 17.9 C 9.01 g/m*3 17.9 C 0 km/h
106 25-07-2008 04:35:27 17.5 C 9.24 g/m*3 17.5 C 0 km/h
107 25-07-2008 05:05:27 17.4 C 9.34 g/m*3 17.4 C 0 km/h
108 25-07-2008 05:35:27 17 C 9.12 g/m*3 17 C 0 km/h
109 25-07-2008 06:05:27 16.6 C 9.32 g/m*3 16.6 C 0 km/h
110 25-07-2008 06:35:27 16.2 C 9.52 g/m*3 16.2 C 0 km/h
111 25-07-2008 07:05:27 16.3 C 9.71 g/m*3 16.3 C 0 km/h
112 25-07-2008 07:35:27 16.8 C 9.87 g/m*3 16.8 C 0 km/h
113 25-07-2008 08:05:27 16.9 C 9.78 g/m*3 16.9 C 0 km/h
114 25-07-2008 08:35:27 17.9 C 9.92 g/m*3 17.9 C 0 km/h
115 25-07-2008 09:05:27 20 C 9.51 g/m*3 20 C 0 km/h
116 25-07-2008 09:35:27 20.4 C 9.91 g/m*3 20.4 C 0 km/h
117 25-07-2008 10:05:27 20.8 C 10.14 g/m*3 20.8 C 0 km/h
118 25-07-2008 10:35:27 22.7 C 9.9 g/m*3 22.7 C 0 km/h
119 25-07-2008 11:05:27 24.4 C 9.57 g/m*3 24.4 C 0 km/h
120 25-07-2008 11:35:27 25.6 C 9.52 g/m*3 25.6 C 0 km/h
121 25-07-2008 12:05:27 27.1 C 9.32 g/m*3 27.1 C 0 km/h
122 25-07-2008 12:35:27 28.8 C 8.81 g/m*3 28.8 C 0 km/h
123 25-07-2008 13:05:27 29.7 C 8.95 g/m*3 29.7 C 0 km/h
124 25-07-2008 13:35:27 30.7 C 8.19 g/m*3 30.7 C 0 km/h
125 25-07-2008 14:05:27 31.3 C 7.48 g/m*3 31.3 C 0 km/h
Sensor: Nr:Datum:Temp:Abs-Feuchte:Windchill:Wind:
Aussen-T/F 126 25-07-2008 14:35:28 31.2 C 7.44 g/m*3 31.2 C 0 km/h
127 25-07-2008 15:05:28 32.1 C 7.13 g/m*3 32.1 C 0 km/h
128 25-07-2008 15:35:28 32.6 C 6.97 g/m*3 32.6 C 0 km/h
129 25-07-2008 16:05:28 32.3 C 6.86 g/m*3 32.3 C 0 km/h
130 25-07-2008 16:35:28 33.3 C 7.23 g/m*3 33.3 C 0 km/h
131 25-07-2008 17:05:28 32.5 C 6.93 g/m*3 32.5 C 0 km/h
132 25-07-2008 17:35:28 32.5 C 6.93 g/m*3 32.5 C 0 km/h
133 25-07-2008 18:05:28 32.5 C 6.93 g/m*3 32.5 C 0 km/h
134 25-07-2008 18:35:28 33.2 C 7.2 g/m*3 33.2 C 0 km/h
135 25-07-2008 19:05:28 32.8 C 7.04 g/m*3 32.8 C 0 km/h
136 25-07-2008 19:35:28 31.3 C 8.46 g/m*3 31.3 C 0 km/h
137 25-07-2008 20:05:28 30.7 C 9.45 g/m*3 30.7 C 0 km/h
138 25-07-2008 20:35:28 29.3 C 9.93 g/m*3 29.3 C 0 km/h
139 25-07-2008 21:05:28 27.8 C 9.95 g/m*3 27.8 C 0 km/h
140 25-07-2008 21:35:28 26.6 C 9.82 g/m*3 26.6 C 0 km/h
141 25-07-2008 22:05:28 25.8 C 9.63 g/m*3 25.8 C 0 km/h
142 25-07-2008 22:35:28 24.9 C 10.07 g/m*3 24.9 C 0 km/h
143 25-07-2008 23:05:28 24.3 C 9.96 g/m*3 24.3 C 0 km/h
144 25-07-2008 23:35:28 23.6 C 10.42 g/m*3 23.6 C 0 km/h
145 26-07-2008 00:05:28 23 C 10.48 g/m*3 23 C 0 km/h
146 26-07-2008 00:35:29 22.2 C 10.6 g/m*3 22.2 C 0 km/h
147 26-07-2008 01:05:29 22.2 C 10.8 g/m*3 22.2 C 0 km/h
148 26-07-2008 01:35:29 21.3 C 10.81 g/m*3 21.3 C 0 km/h
149 26-07-2008 02:05:29 21 C 10.99 g/m*3 21 C 0 km/h
150 26-07-2008 02:35:29 20.5 C 11.21 g/m*3 20.5 C 0 km/h
Sensor: Nr:Datum:Temp:Abs-Feuchte:Windchill:Wind:
Aussen-T/F 151 26-07-2008 03:05:29 20.2 C 11.19 g/m*3 20.2 C 0 km/h
152 26-07-2008 03:35:29 20 C 11.23 g/m*3 20 C 0 km/h
153 26-07-2008 04:05:29 20.2 C 11.19 g/m*3 20.2 C 0 km/h
154 26-07-2008 04:35:29 20 C 11.23 g/m*3 20 C 0 km/h
155 26-07-2008 05:05:29 19.9 C 11.51 g/m*3 19.9 C 0 km/h
156 26-07-2008 05:35:29 19.1 C 11.31 g/m*3 19.1 C 0 km/h
157 26-07-2008 06:05:29 18.8 C 11.6 g/m*3 18.8 C 0 km/h
158 26-07-2008 06:35:29 19.1 C 11.64 g/m*3 19.1 C 0 km/h
159 26-07-2008 07:05:29 19.5 C 11.75 g/m*3 19.5 C 0 km/h
160 26-07-2008 07:35:29 19.6 C 11.65 g/m*3 19.6 C 0 km/h
161 26-07-2008 08:05:29 19.8 C 11.79 g/m*3 19.8 C 0 km/h
162 26-07-2008 08:35:29 20.2 C 11.71 g/m*3 20.2 C 0 km/h
163 26-07-2008 09:05:29 21 C 11.36 g/m*3 21 C 0 km/h
164 26-07-2008 09:35:29 22 C 11.65 g/m*3 22 C 0 km/h
165 26-07-2008 10:05:29 23.7 C 11.55 g/m*3 23.7 C 0 km/h
166 26-07-2008 10:35:30 25.1 C 11.81 g/m*3 25.1 C 0 km/h
167 26-07-2008 11:05:30 25.8 C 12.28 g/m*3 25.8 C 0 km/h
168 26-07-2008 11:35:30 27.3 C 12.04 g/m*3 27.3 C 0 km/h
169 26-07-2008 12:05:30 29.6 C 12.17 g/m*3 29.6 C 0 km/h
170 26-07-2008 12:35:30 30.2 C 11.34 g/m*3 30.2 C 0 km/h
171 26-07-2008 13:05:30 30.6 C 10.96 g/m*3 30.6 C 0 km/h
172 26-07-2008 13:35:30 30.7 C 11.02 g/m*3 30.7 C 0 km/h
173 26-07-2008 14:05:30 30.9 C 10.5 g/m*3 30.9 C 0 km/h
174 26-07-2008 14:35:30 31 C 10.24 g/m*3 31 C 0 km/h
175 26-07-2008 15:05:30 31.8 C 10.02 g/m*3 31.8 C 0 km/h
Sensor: Nr:Datum:Temp:Abs-Feuchte:Windchill:Wind:
Aussen-T/F 176 26-07-2008 15:35:30 32.1 C 10.18 g/m*3 32.1 C 0 km/h
177 26-07-2008 16:05:30 33.2 C 7.55 g/m*3 33.2 C 0 km/h
178 26-07-2008 16:35:30 32.2 C 8.53 g/m*3 32.2 C 0 km/h
179 26-07-2008 17:05:30 31.7 C 8.64 g/m*3 31.7 C 0 km/h
180 26-07-2008 17:35:30 29 C 10.05 g/m*3 29 C 0 km/h
181 26-07-2008 18:05:30 25.3 C 11.71 g/m*3 25.3 C 0 km/h
182 26-07-2008 18:35:30 20.8 C 14.12 g/m*3 20.8 C 0 km/h
183 26-07-2008 19:05:30 20.9 C 15.3 g/m*3 20.9 C 0 km/h
184 26-07-2008 19:35:30 20.6 C 15.21 g/m*3 20.6 C 0 km/h
185 26-07-2008 20:05:31 21.1 C 14.37 g/m*3 21.1 C 0 km/h
186 26-07-2008 20:35:31 20.8 C 14.49 g/m*3 20.8 C 0 km/h
187 26-07-2008 21:05:31 20.8 C 14.3 g/m*3 20.8 C 0 km/h
188 26-07-2008 21:35:31 19.5 C 14.1 g/m*3 19.5 C 0 km/h
189 26-07-2008 22:05:31 19.3 C 13.6 g/m*3 19.3 C 0 km/h
190 26-07-2008 22:35:31 19 C 13.36 g/m*3 19 C 0 km/h
191 26-07-2008 23:05:31 18.9 C 13.61 g/m*3 18.9 C 0 km/h
192 26-07-2008 23:35:31 18.8 C 14.17 g/m*3 18.8 C 0 km/h
193 27-07-2008 00:05:31 18.5 C 14.08 g/m*3 18.5 C 0 km/h
194 27-07-2008 00:35:31 18.4 C 14 g/m*3 18.4 C 0 km/h
195 27-07-2008 01:05:31 18.5 C 14.08 g/m*3 18.5 C 0 km/h
196 27-07-2008 01:35:31 18.3 C 13.92 g/m*3 18.3 C 0 km/h
197 27-07-2008 02:05:31 18.1 C 13.6 g/m*3 18.1 C 0 km/h
198 27-07-2008 02:35:31 17.8 C 13.51 g/m*3 17.8 C 0 km/h
199 27-07-2008 03:05:31 18 C 13.67 g/m*3 18 C 0 km/h
200 27-07-2008 03:35:31 18.4 C 14 g/m*3 18.4 C 0 km/h
Sensor: Nr:Datum:Temp:Abs-Feuchte:Windchill:Wind:
Aussen-T/F 201 27-07-2008 04:05:31 18.4 C 13.84 g/m*3 18.4 C 0 km/h
202 27-07-2008 04:35:31 18.5 C 13.92 g/m*3 18.5 C 0 km/h
203 27-07-2008 05:05:31 18.7 C 13.93 g/m*3 18.7 C 0 km/h
204 27-07-2008 05:35:32 18.7 C 13.93 g/m*3 18.7 C 0 km/h
205 27-07-2008 06:05:32 18.8 C 14.01 g/m*3 18.8 C 0 km/h
206 27-07-2008 06:35:32 18.8 C 14.01 g/m*3 18.8 C 0 km/h
207 27-07-2008 07:05:32 19 C 13.85 g/m*3 19 C 0 km/h
208 27-07-2008 07:35:32 19.2 C 13.85 g/m*3 19.2 C 0 km/h
209 27-07-2008 08:05:32 19.6 C 13.67 g/m*3 19.6 C 0 km/h
210 27-07-2008 08:35:32 19.7 C 13.25 g/m*3 19.7 C 0 km/h
211 27-07-2008 09:05:32 19.9 C 13.23 g/m*3 19.9 C 0 km/h
212 27-07-2008 09:35:32 20.1 C 13.04 g/m*3 20.1 C 0 km/h
213 27-07-2008 10:05:32 20.4 C 13.09 g/m*3 20.4 C 0 km/h
214 27-07-2008 10:35:32 21.6 C 13.66 g/m*3 21.6 C 0 km/h
215 27-07-2008 11:05:32 23.4 C 13.04 g/m*3 23.4 C 0 km/h
216 27-07-2008 11:35:32 24.3 C 12.83 g/m*3 24.3 C 0 km/h
217 27-07-2008 12:05:32 24.9 C 13.05 g/m*3 24.9 C 0 km/h
218 27-07-2008 12:35:32 26.5 C 12.77 g/m*3 26.5 C 0 km/h
219 27-07-2008 13:05:32 28.2 C 12.1 g/m*3 28.2 C 0 km/h
220 27-07-2008 13:35:32 29.9 C 11.46 g/m*3 29.9 C 0 km/h
221 27-07-2008 14:05:32 30.3 C 11.4 g/m*3 30.3 C 0 km/h
222 27-07-2008 14:35:32 31.2 C 10.67 g/m*3 31.2 C 0 km/h
223 27-07-2008 15:05:33 31.8 C 10.02 g/m*3 31.8 C 0 km/h
224 27-07-2008 15:35:33 32.4 C 10 g/m*3 32.4 C 0 km/h
225 27-07-2008 16:05:33 33 C 8.9 g/m*3 33 C 0 km/h
Sensor: Nr:Datum:Temp:Abs-Feuchte:Windchill:Wind:
Aussen-T/F 226 27-07-2008 16:35:33 32.7 C 8.76 g/m*3 32.7 C 0 km/h
227 27-07-2008 17:05:33 33.8 C 7.43 g/m*3 33.8 C 0 km/h
228 27-07-2008 17:35:33 33.6 C 7.35 g/m*3 33.6 C 0 km/h
229 27-07-2008 18:05:33 32 C 9.45 g/m*3 32 C 0 km/h
230 27-07-2008 18:35:33 31 C 10.88 g/m*3 31 C 0 km/h
231 27-07-2008 19:05:33 25.1 C 12.04 g/m*3 25.1 C 0 km/h
232 27-07-2008 19:35:33 22.8 C 15.65 g/m*3 22.8 C 0 km/h
233 27-07-2008 20:05:33 21.7 C 15.83 g/m*3 21.7 C 0 km/h
234 27-07-2008 20:35:33 21 C 15.39 g/m*3 21 C 0 km/h
235 27-07-2008 21:05:33 21.6 C 15.36 g/m*3 21.6 C 0 km/h
236 27-07-2008 21:35:33 21.5 C 14.71 g/m*3 21.5 C 0 km/h
237 27-07-2008 22:05:33 21.3 C 14.54 g/m*3 21.3 C 0 km/h
238 27-07-2008 22:35:33 21 C 13.92 g/m*3 21 C 0 km/h
239 27-07-2008 23:05:33 20.8 C 13.76 g/m*3 20.8 C 0 km/h
240 27-07-2008 23:35:33 20.7 C 13.68 g/m*3 20.7 C 0 km/h
241 28-07-2008 00:05:33 20.3 C 13.54 g/m*3 20.3 C 0 km/h
242 28-07-2008 00:35:33 20 C 13.48 g/m*3 20 C 0 km/h
243 28-07-2008 01:05:34 19.5 C 13.26 g/m*3 19.5 C 0 km/h
244 28-07-2008 01:35:34 19.2 C 13.19 g/m*3 19.2 C 0 km/h
245 28-07-2008 02:05:34 19.1 C 13.28 g/m*3 19.1 C 0 km/h
246 28-07-2008 02:35:34 19.2 C 13.36 g/m*3 19.2 C 0 km/h
247 28-07-2008 03:05:34 19.2 C 13.36 g/m*3 19.2 C 0 km/h
248 28-07-2008 03:35:34 18.9 C 13.61 g/m*3 18.9 C 0 km/h
249 28-07-2008 04:05:34 18.6 C 13.37 g/m*3 18.6 C 0 km/h
250 28-07-2008 04:35:34 18.6 C 13.37 g/m*3 18.6 C 0 km/h
Sensor: Nr:Datum:Temp:Abs-Feuchte:Windchill:Wind:
Aussen-T/F 251 28-07-2008 05:05:34 18.3 C 13.29 g/m*3 18.3 C 0 km/h
252 28-07-2008 05:35:34 18.1 C 13.13 g/m*3 18.1 C 0 km/h
253 28-07-2008 06:05:34 18 C 13.06 g/m*3 18 C 0 km/h
254 28-07-2008 06:35:34 18.2 C 13.21 g/m*3 18.2 C 0 km/h
255 28-07-2008 07:05:34 18.5 C 13.45 g/m*3 18.5 C 0 km/h
256 28-07-2008 07:35:34 18.9 C 13.77 g/m*3 18.9 C 0 km/h
257 28-07-2008 08:05:34 19.4 C 13.85 g/m*3 19.4 C 0 km/h
258 28-07-2008 08:35:34 19.8 C 13.84 g/m*3 19.8 C 0 km/h
259 28-07-2008 09:05:34 20.9 C 14.21 g/m*3 20.9 C 0 km/h
260 28-07-2008 09:35:34 22.4 C 13.7 g/m*3 22.4 C 0 km/h
261 28-07-2008 10:05:34 23.5 C 13.75 g/m*3 23.5 C 0 km/h
262 28-07-2008 10:35:35 26 C 12.42 g/m*3 26 C 0 km/h
263 28-07-2008 11:05:35 26.6 C 12.59 g/m*3 26.6 C 0 km/h
264 28-07-2008 11:35:35 27.9 C 12.17 g/m*3 27.9 C 0 km/h
265 28-07-2008 12:05:35 28.7 C 11.59 g/m*3 28.7 C 0 km/h
266 28-07-2008 12:35:35 30.6 C 10.65 g/m*3 30.6 C 0 km/h
267 28-07-2008 13:05:35 31.5 C 9.86 g/m*3 31.5 C 0 km/h
268 28-07-2008 13:35:35 32.1 C 9.16 g/m*3 32.1 C 0 km/h
269 28-07-2008 14:05:35 32.1 C 8.82 g/m*3 32.1 C 0 km/h
270 28-07-2008 14:35:35 31.9 C 8.39 g/m*3 31.9 C 0 km/h
271 28-07-2008 15:05:35 32.6 C 7.67 g/m*3 32.6 C 0 km/h
272 28-07-2008 15:35:35 32.3 C 6.86 g/m*3 32.3 C 0 km/h
273 28-07-2008 16:05:35 33.1 C 7.16 g/m*3 33.1 C 0 km/h
274 28-07-2008 16:35:35 32.6 C 6.97 g/m*3 32.6 C 0 km/h
275 28-07-2008 17:05:35 33.2 C 7.2 g/m*3 33.2 C 0 km/h
Sensor: Nr:Datum:Temp:Abs-Feuchte:Windchill:Wind:
Aussen-T/F 276 28-07-2008 17:35:35 32.7 C 8.41 g/m*3 32.7 C 0 km/h
277 28-07-2008 18:05:35 32.8 C 7.75 g/m*3 32.8 C 0 km/h
278 28-07-2008 18:35:35 31.5 C 9.2 g/m*3 31.5 C 0 km/h
279 28-07-2008 19:05:35 30.2 C 9.2 g/m*3 30.2 C 0 km/h
280 28-07-2008 19:35:35 30.3 C 9.55 g/m*3 30.3 C 0 km/h
281 28-07-2008 20:05:36 29 C 9.77 g/m*3 29 C 0 km/h
282 28-07-2008 20:35:36 27.8 C 9.68 g/m*3 27.8 C 0 km/h
283 28-07-2008 21:05:36 27 C 9.52 g/m*3 27 C 0 km/h
284 28-07-2008 21:35:36 26.3 C 9.65 g/m*3 26.3 C 0 km/h
285 28-07-2008 22:05:36 25.5 C 9.47 g/m*3 25.5 C 0 km/h
286 28-07-2008 22:35:36 24.8 C 9.79 g/m*3 24.8 C 0 km/h
287 28-07-2008 23:05:36 24.1 C 9.63 g/m*3 24.1 C 0 km/h
288 28-07-2008 23:35:36 23.4 C 9.88 g/m*3 23.4 C 0 km/h
289 29-07-2008 00:05:36 23 C 9.87 g/m*3 23 C 0 km/h
290 29-07-2008 00:35:36 22.5 C 10.39 g/m*3 22.5 C 0 km/h
291 29-07-2008 01:05:36 22.1 C 10.35 g/m*3 22.1 C 0 km/h
292 29-07-2008 01:35:36 21.6 C 10.43 g/m*3 21.6 C 0 km/h
293 29-07-2008 02:05:36 21.1 C 11.06 g/m*3 21.1 C 0 km/h
294 29-07-2008 02:35:36 20.9 C 10.93 g/m*3 20.9 C 0 km/h
295 29-07-2008 03:05:36 20.4 C 10.97 g/m*3 20.4 C 0 km/h
296 29-07-2008 03:35:36 20.1 C 11.3 g/m*3 20.1 C 0 km/h
297 29-07-2008 04:05:36 19.8 C 11.44 g/m*3 19.8 C 0 km/h
298 29-07-2008 04:35:36 19.4 C 11.68 g/m*3 19.4 C 0 km/h
299 29-07-2008 05:05:36 19.2 C 11.87 g/m*3 19.2 C 0 km/h
300 29-07-2008 05:35:37 19 C 11.57 g/m*3 19 C 0 km/h
Sensor: Nr:Datum:Temp:Abs-Feuchte:Windchill:Wind:
Aussen-T/F 301 29-07-2008 06:05:37 19 C 11.73 g/m*3 19 C 0 km/h
302 29-07-2008 06:35:37 19 C 11.9 g/m*3 19 C 0 km/h
303 29-07-2008 07:05:37 19.2 C 12.04 g/m*3 19.2 C 0 km/h
304 29-07-2008 07:35:37 19.1 C 12.13 g/m*3 19.1 C 0 km/h
305 29-07-2008 08:05:37 19.4 C 12.35 g/m*3 19.4 C 0 km/h
306 29-07-2008 08:35:37 20.2 C 12.24 g/m*3 20.2 C 0 km/h
307 29-07-2008 09:05:37 22 C 12.23 g/m*3 22 C 0 km/h
308 29-07-2008 09:35:37 23.5 C 11.84 g/m*3 23.5 C 0 km/h
309 29-07-2008 10:05:37 24.6 C 11.7 g/m*3 24.6 C 0 km/h
310 29-07-2008 10:35:37 27 C 11.58 g/m*3 27 C 0 km/h
311 29-07-2008 11:05:37 27.8 C 12.1 g/m*3 27.8 C 0 km/h
312 29-07-2008 11:35:37 24.8 C 11.84 g/m*3 24.8 C 0 km/h
313 29-07-2008 12:05:37 20.4 C 13.98 g/m*3 20.4 C 0 km/h
314 29-07-2008 12:35:37 20.3 C 14.95 g/m*3 20.3 C 0 km/h
315 29-07-2008 13:05:37 21.4 C 15.37 g/m*3 21.4 C 0 km/h
316 29-07-2008 13:35:37 24.6 C 16.21 g/m*3 24.6 C 0 km/h
317 29-07-2008 14:05:37 26.8 C 14 g/m*3 26.8 C 0 km/h
318 29-07-2008 14:35:37 27.7 C 13.11 g/m*3 27.7 C 0 km/h
319 29-07-2008 15:05:38 29.8 C 12 g/m*3 29.8 C 0 km/h
320 29-07-2008 15:35:38 30.7 C 11.02 g/m*3 30.7 C 0 km/h
321 29-07-2008 16:05:38 31.4 C 10.46 g/m*3 31.4 C 0 km/h
322 29-07-2008 16:35:38 32 C 10.13 g/m*3 32 C 0 km/h
323 29-07-2008 17:05:38 32.1 C 9.5 g/m*3 32.1 C 0 km/h
324 29-07-2008 17:35:38 31.8 C 10.02 g/m*3 31.8 C 0 km/h
325 29-07-2008 18:05:38 31.5 C 10.19 g/m*3 31.5 C 0 km/h
Sensor: Nr:Datum:Temp:Abs-Feuchte:Windchill:Wind:
Aussen-T/F 326 29-07-2008 18:35:38 31.9 C 9.07 g/m*3 31.9 C 0 km/h
327 29-07-2008 19:05:38 31.7 C 9.3 g/m*3 31.7 C 0 km/h
328 29-07-2008 19:35:38 30.3 C 10.79 g/m*3 30.3 C 0 km/h
329 29-07-2008 20:05:38 31.3 C 10.73 g/m*3 31.3 C 0 km/h
330 29-07-2008 20:35:38 30.2 C 9.81 g/m*3 30.2 C 0 km/h
331 29-07-2008 21:05:38 26.9 C 10.49 g/m*3 26.9 C 0 km/h
332 29-07-2008 21:35:38 25.1 C 10.65 g/m*3 25.1 C 0 km/h
333 29-07-2008 22:05:38 24.4 C 11.57 g/m*3 24.4 C 0 km/h
334 29-07-2008 22:35:38 23.5 C 11.42 g/m*3 23.5 C 0 km/h
335 29-07-2008 23:05:38 23.1 C 11.78 g/m*3 23.1 C 0 km/h
336 29-07-2008 23:35:38 22.3 C 11.65 g/m*3 22.3 C 0 km/h
337 30-07-2008 00:05:38 21.7 C 12.21 g/m*3 21.7 C 0 km/h
338 30-07-2008 00:35:38 21.1 C 12.53 g/m*3 21.1 C 0 km/h
339 30-07-2008 01:05:39 20.7 C 12.78 g/m*3 20.7 C 0 km/h
340 30-07-2008 01:35:39 20.6 C 12.71 g/m*3 20.6 C 0 km/h
341 30-07-2008 02:05:39 20.3 C 12.49 g/m*3 20.3 C 0 km/h
342 30-07-2008 02:35:39 19.9 C 12.54 g/m*3 19.9 C 0 km/h
343 30-07-2008 03:05:39 19.5 C 12.42 g/m*3 19.5 C 0 km/h
344 30-07-2008 03:35:39 19 C 12.55 g/m*3 19 C 0 km/h
345 30-07-2008 04:05:39 18.9 C 12.47 g/m*3 18.9 C 0 km/h
346 30-07-2008 04:35:39 18.7 C 12.49 g/m*3 18.7 C 0 km/h
347 30-07-2008 05:05:39 18.3 C 12.51 g/m*3 18.3 C 0 km/h
348 30-07-2008 05:35:39 18.1 C 12.36 g/m*3 18.1 C 0 km/h
349 30-07-2008 06:05:39 17.9 C 12.37 g/m*3 17.9 C 0 km/h
350 30-07-2008 06:35:39 17.8 C 12.45 g/m*3 17.8 C 0 km/h
Sensor: Nr:Datum:Temp:Abs-Feuchte:Windchill:Wind:
Aussen-T/F 351 30-07-2008 07:05:39 17.8 C 12.45 g/m*3 17.8 C 0 km/h
352 30-07-2008 07:35:39 17.8 C 12.45 g/m*3 17.8 C 0 km/h
353 30-07-2008 08:05:39 19 C 12.71 g/m*3 19 C 0 km/h
354 30-07-2008 08:35:39 19.9 C 12.54 g/m*3 19.9 C 0 km/h
355 30-07-2008 09:05:39 20.7 C 12.6 g/m*3 20.7 C 0 km/h
356 30-07-2008 09:35:39 22 C 12.81 g/m*3 22 C 0 km/h
357 30-07-2008 10:05:39 22.7 C 12.93 g/m*3 22.7 C 0 km/h
358 30-07-2008 10:35:40 24.8 C 12.97 g/m*3 24.8 C 0 km/h
359 30-07-2008 11:05:40 26.1 C 12.49 g/m*3 26.1 C 0 km/h
360 30-07-2008 11:35:40 26.8 C 12.22 g/m*3 26.8 C 0 km/h
361 30-07-2008 12:05:40 27.5 C 12.43 g/m*3 27.5 C 0 km/h
362 30-07-2008 12:35:40 29.3 C 11.97 g/m*3 29.3 C 0 km/h
363 30-07-2008 13:05:40 29.6 C 11.87 g/m*3 29.6 C 0 km/h
364 30-07-2008 13:35:40 30 C 10.92 g/m*3 30 C 0 km/h
365 30-07-2008 14:05:40 29.8 C 11.4 g/m*3 29.8 C 0 km/h
366 30-07-2008 14:35:40 31.7 C 10.3 g/m*3 31.7 C 0 km/h
367 30-07-2008 15:05:40 32.7 C 9.11 g/m*3 32.7 C 0 km/h
368 30-07-2008 15:35:40 32 C 9.45 g/m*3 32 C 0 km/h
369 30-07-2008 16:05:40 31.8 C 10.02 g/m*3 31.8 C 0 km/h
370 30-07-2008 16:35:40 33.2 C 8.63 g/m*3 33.2 C 0 km/h
371 30-07-2008 17:05:40 33.3 C 7.96 g/m*3 33.3 C 0 km/h
372 30-07-2008 17:35:40 33.6 C 8.08 g/m*3 33.6 C 0 km/h
373 30-07-2008 18:05:40 34 C 7.5 g/m*3 34 C 0 km/h
374 30-07-2008 18:35:40 24.5 C 5.82 g/m*3 24.5 C 0 km/h
375 30-07-2008 19:05:40 21.2 C 4.82 g/m*3 21.2 C 0 km/h
Sensor: Nr:Datum:Temp:Abs-Feuchte:Windchill:Wind:
Aussen-T/F 376 30-07-2008 19:35:40 22.4 C 6.16 g/m*3 22.4 C 0 km/h
377 30-07-2008 20:05:41 24.6 C 18.01 g/m*3 24.6 C 0 km/h
378 30-07-2008 20:35:41 23 C 15.42 g/m*3 23 C 0 km/h
379 30-07-2008 21:05:41 22.1 C 13.66 g/m*3 22.1 C 0 km/h
380 30-07-2008 21:35:41 20.1 C 14.78 g/m*3 20.1 C 0 km/h
381 30-07-2008 22:05:41 20.1 C 15.12 g/m*3 20.1 C 0 km/h
382 30-07-2008 22:35:41 20.1 C 15.12 g/m*3 20.1 C 0 km/h
383 30-07-2008 23:05:41 20 C 14.86 g/m*3 20 C 0 km/h
384 30-07-2008 23:35:41 19.6 C 14.69 g/m*3 19.6 C 0 km/h
385 31-07-2008 00:05:41 19.1 C 13.93 g/m*3 19.1 C 0 km/h
386 31-07-2008 00:35:41 18.7 C 13.77 g/m*3 18.7 C 0 km/h
387 31-07-2008 01:05:41 18.5 C 13.61 g/m*3 18.5 C 0 km/h
388 31-07-2008 01:35:41 18.4 C 13.53 g/m*3 18.4 C 0 km/h
389 31-07-2008 02:05:41 18.1 C 13.44 g/m*3 18.1 C 0 km/h
390 31-07-2008 02:35:41 17.9 C 13.44 g/m*3 17.9 C 0 km/h
391 31-07-2008 03:05:41 17.6 C 13.2 g/m*3 17.6 C 0 km/h
392 31-07-2008 03:35:41 17.4 C 13.04 g/m*3 17.4 C 0 km/h
393 31-07-2008 04:05:41 17.1 C 12.96 g/m*3 17.1 C 0 km/h
394 31-07-2008 04:35:41 17.2 C 13.18 g/m*3 17.2 C 0 km/h
395 31-07-2008 05:05:41 17.2 C 13.03 g/m*3 17.2 C 0 km/h
396 31-07-2008 05:35:42 17.4 C 13.19 g/m*3 17.4 C 0 km/h
397 31-07-2008 06:05:42 17 C 12.73 g/m*3 17 C 0 km/h
398 31-07-2008 06:35:42 17.5 C 13.12 g/m*3 17.5 C 0 km/h
399 31-07-2008 07:05:42 17.2 C 12.59 g/m*3 17.2 C 0 km/h
400 31-07-2008 07:35:42 17.1 C 12.66 g/m*3 17.1 C 0 km/h
Sensor: Nr:Datum:Temp:Abs-Feuchte:Windchill:Wind:
Aussen-T/F 401 31-07-2008 08:05:42 17.9 C 13.28 g/m*3 17.9 C 0 km/h
402 31-07-2008 08:35:42 18.5 C 13.13 g/m*3 18.5 C 0 km/h
403 31-07-2008 09:05:42 18.9 C 12.96 g/m*3 18.9 C 0 km/h
404 31-07-2008 09:35:42 19.7 C 13.75 g/m*3 19.7 C 0 km/h
405 31-07-2008 10:05:42 21 C 14.29 g/m*3 21 C 0 km/h
406 31-07-2008 10:35:42 22.9 C 15.12 g/m*3 22.9 C 0 km/h
407 31-07-2008 11:05:42 24.8 C 13.88 g/m*3 24.8 C 0 km/h
408 31-07-2008 11:35:42 26.6 C 13.84 g/m*3 26.6 C 0 km/h
409 31-07-2008 12:05:42 27.8 C 13.18 g/m*3 27.8 C 0 km/h
410 31-07-2008 12:35:42 29.5 C 12.4 g/m*3 29.5 C 0 km/h
411 31-07-2008 13:05:42 30.7 C 11.34 g/m*3 30.7 C 0 km/h
412 31-07-2008 13:35:42 31.6 C 9.91 g/m*3 31.6 C 0 km/h
413 31-07-2008 14:05:42 31.4 C 9.81 g/m*3 31.4 C 0 km/h
414 31-07-2008 14:35:42 30.8 C 10.76 g/m*3 30.8 C 0 km/h
415 31-07-2008 15:05:43 31.5 C 10.19 g/m*3 31.5 C 0 km/h
416 31-07-2008 15:35:43 31.5 C 10.52 g/m*3 31.5 C 0 km/h
417 31-07-2008 16:05:43 33.3 C 9.04 g/m*3 33.3 C 0 km/h
418 31-07-2008 16:35:43 33.8 C 8.54 g/m*3 33.8 C 0 km/h
419 31-07-2008 17:05:43 33.7 C 8.49 g/m*3 33.7 C 0 km/h
420 31-07-2008 17:35:43 33.9 C 7.84 g/m*3 33.9 C 0 km/h
421 31-07-2008 18:05:43 34.1 C 8.3 g/m*3 34.1 C 0 km/h
422 31-07-2008 18:35:43 33.8 C 8.91 g/m*3 33.8 C 0 km/h
423 31-07-2008 19:05:43 33.3 C 9.04 g/m*3 33.3 C 0 km/h
424 31-07-2008 19:35:43 32.9 C 9.56 g/m*3 32.9 C 0 km/h
425 31-07-2008 20:05:43 32 C 10.47 g/m*3 32 C 0 km/h
Sensor: Nr:Datum:Temp:Abs-Feuchte:Windchill:Wind:
Aussen-T/F 426 31-07-2008 20:35:43 29.7 C 12.23 g/m*3 29.7 C 0 km/h
427 31-07-2008 21:05:43 27.9 C 12.17 g/m*3 27.9 C 0 km/h
428 31-07-2008 21:35:43 26.8 C 12.22 g/m*3 26.8 C 0 km/h
429 31-07-2008 22:05:43 26.1 C 11.75 g/m*3 26.1 C 0 km/h
430 31-07-2008 22:35:43 25.6 C 11.67 g/m*3 25.6 C 0 km/h
431 31-07-2008 23:05:43 25.2 C 11.87 g/m*3 25.2 C 0 km/h
432 31-07-2008 23:35:43 24.9 C 11.9 g/m*3 24.9 C 0 km/h
433 01-08-2008 00:05:43 24.6 C 11.93 g/m*3 24.6 C 0 km/h
434 01-08-2008 00:35:44 24.5 C 12.53 g/m*3 24.5 C 0 km/h
435 01-08-2008 01:05:44 24.8 C 12.29 g/m*3 24.8 C 0 km/h
436 01-08-2008 01:35:44 24.6 C 12.38 g/m*3 24.6 C 0 km/h
437 01-08-2008 02:05:44 24.1 C 12.69 g/m*3 24.1 C 0 km/h
438 01-08-2008 02:35:44 23.8 C 13.34 g/m*3 23.8 C 0 km/h
439 01-08-2008 03:05:44 23.7 C 13.48 g/m*3 23.7 C 0 km/h
440 01-08-2008 03:35:44 23 C 13.57 g/m*3 23 C 0 km/h
441 01-08-2008 04:05:44 22.8 C 13.61 g/m*3 22.8 C 0 km/h
442 01-08-2008 04:35:44 22.6 C 13.66 g/m*3 22.6 C 0 km/h
443 01-08-2008 05:05:44 22.5 C 13.98 g/m*3 22.5 C 0 km/h
444 01-08-2008 05:35:44 22.1 C 14.05 g/m*3 22.1 C 0 km/h
445 01-08-2008 06:05:44 22.2 C 13.94 g/m*3 22.2 C 0 km/h
446 01-08-2008 06:35:44 22.4 C 13.9 g/m*3 22.4 C 0 km/h
447 01-08-2008 07:05:44 22.7 C 13.54 g/m*3 22.7 C 0 km/h
448 01-08-2008 07:35:44 23.4 C 13.67 g/m*3 23.4 C 0 km/h
449 01-08-2008 08:05:44 23.4 C 13.46 g/m*3 23.4 C 0 km/h
450 01-08-2008 08:35:44 23.7 C 13.69 g/m*3 23.7 C 0 km/h
Sensor: Nr:Datum:Temp:Abs-Feuchte:Windchill:Wind:
Aussen-T/F 451 01-08-2008 09:05:44 23.8 C 12.48 g/m*3 23.8 C 0 km/h
452 01-08-2008 09:35:44 24.5 C 12.76 g/m*3 24.5 C 0 km/h
453 01-08-2008 10:05:45 24.9 C 12.36 g/m*3 24.9 C 0 km/h
454 01-08-2008 10:35:45 26.3 C 11.64 g/m*3 26.3 C 0 km/h
455 01-08-2008 11:05:45 27.3 C 11.51 g/m*3 27.3 C 0 km/h
456 01-08-2008 11:35:45 27.7 C 10.7 g/m*3 27.7 C 0 km/h
457 01-08-2008 12:05:45 27.7 C 9.9 g/m*3 27.7 C 0 km/h
458 01-08-2008 12:35:45 28.2 C 8.8 g/m*3 28.2 C 0 km/h
459 01-08-2008 13:05:45 28.2 C 8.52 g/m*3 28.2 C 0 km/h
460 01-08-2008 13:35:45 26.5 C 9.26 g/m*3 26.5 C 0 km/h
461 01-08-2008 14:05:45 26.3 C 9.41 g/m*3 26.3 C 0 km/h
462 01-08-2008 14:35:45 26.1 C 9.55 g/m*3 26.1 C 0 km/h
463 01-08-2008 15:05:45 28.2 C 8.8 g/m*3 28.2 C 0 km/h
464 01-08-2008 15:35:45 29.5 C 8.85 g/m*3 29.5 C 0 km/h
465 01-08-2008 16:05:45 28.2 C 8.8 g/m*3 28.2 C 0 km/h
466 01-08-2008 16:35:45 29.3 C 8.47 g/m*3 29.3 C 0 km/h
467 01-08-2008 17:05:45 28.4 C 8.34 g/m*3 28.4 C 0 km/h
468 01-08-2008 17:35:45 26.8 C 8.14 g/m*3 26.8 C 0 km/h
469 01-08-2008 18:05:45 26.3 C 7.92 g/m*3 26.3 C 0 km/h
470 01-08-2008 18:35:45 26.4 C 7.97 g/m*3 26.4 C 0 km/h
471 01-08-2008 19:05:45 26.9 C 7.68 g/m*3 26.9 C 0 km/h
472 01-08-2008 19:35:46 27.2 C 7.03 g/m*3 27.2 C 0 km/h
473 01-08-2008 20:05:46 25.6 C 6.43 g/m*3 25.6 C 0 km/h
474 01-08-2008 20:35:46 24.4 C 6.45 g/m*3 24.4 C 0 km/h
475 01-08-2008 21:05:46 23.7 C 7.06 g/m*3 23.7 C 0 km/h
Sensor: Nr:Datum:Temp:Abs-Feuchte:Windchill:Wind:
Aussen-T/F 476 01-08-2008 21:35:46 23.1 C 7.44 g/m*3 23.1 C 0 km/h
477 01-08-2008 22:05:46 22.4 C 7.55 g/m*3 22.4 C 0 km/h
478 01-08-2008 22:35:46 22 C 7.96 g/m*3 22 C 0 km/h
479 01-08-2008 23:05:46 21.6 C 8.16 g/m*3 21.6 C 0 km/h
480 01-08-2008 23:35:46 20.6 C 8.59 g/m*3 20.6 C 0 km/h
481 02-08-2008 00:05:46 19.6 C 8.61 g/m*3 19.6 C 0 km/h
482 02-08-2008 00:35:46 19 C 8.8 g/m*3 19 C 0 km/h
483 02-08-2008 01:05:46 18.4 C 9.12 g/m*3 18.4 C 0 km/h
484 02-08-2008 01:35:46 18.1 C 9.27 g/m*3 18.1 C 0 km/h
485 02-08-2008 02:05:46 17.2 C 9.52 g/m*3 17.2 C 0 km/h
486 02-08-2008 02:35:46 16.9 C 9.78 g/m*3 16.9 C 0 km/h
487 02-08-2008 03:05:46 16.6 C 9.75 g/m*3 16.6 C 0 km/h
488 02-08-2008 03:35:46 16.6 C 9.75 g/m*3 16.6 C 0 km/h
489 02-08-2008 04:05:46 16.3 C 9.85 g/m*3 16.3 C 0 km/h
490 02-08-2008 04:35:46 16.6 C 9.89 g/m*3 16.6 C 0 km/h
491 02-08-2008 05:05:47 16.1 C 9.73 g/m*3 16.1 C 0 km/h
492 02-08-2008 05:35:47 15.7 C 9.9 g/m*3 15.7 C 0 km/h
493 02-08-2008 06:05:47 15.5 C 10.05 g/m*3 15.5 C 0 km/h
494 02-08-2008 06:35:47 16.1 C 10.28 g/m*3 16.1 C 0 km/h
495 02-08-2008 07:05:47 16.6 C 10.45 g/m*3 16.6 C 0 km/h
496 02-08-2008 07:35:47 17.2 C 10.4 g/m*3 17.2 C 0 km/h
497 02-08-2008 08:05:47 18 C 10.29 g/m*3 18 C 0 km/h
498 02-08-2008 08:35:47 18.5 C 10.13 g/m*3 18.5 C 0 km/h
499 02-08-2008 09:05:47 20 C 9.85 g/m*3 20 C 0 km/h
500 02-08-2008 09:35:47 20.4 C 10.26 g/m*3 20.4 C 0 km/h
Sensor: Nr:Datum:Temp:Abs-Feuchte:Windchill:Wind:
Aussen-T/F 501 02-08-2008 10:05:47 21.2 C 10.38 g/m*3 21.2 C 0 km/h
502 02-08-2008 10:35:47 22 C 8.93 g/m*3 22 C 0 km/h
503 02-08-2008 11:05:47 22.9 C 8.58 g/m*3 22.9 C 0 km/h
504 02-08-2008 11:35:47 23.6 C 8.08 g/m*3 23.6 C 0 km/h
505 02-08-2008 12:05:47 24.4 C 7.79 g/m*3 24.4 C 0 km/h
506 02-08-2008 12:35:47 25.6 C 7.38 g/m*3 25.6 C 0 km/h
507 02-08-2008 13:05:47 26.9 C 6.91 g/m*3 26.9 C 0 km/h
508 02-08-2008 13:35:47 27 C 6.95 g/m*3 27 C 0 km/h
509 02-08-2008 14:05:47 26.9 C 6.65 g/m*3 26.9 C 0 km/h
510 02-08-2008 14:35:48 26.5 C 7.01 g/m*3 26.5 C 0 km/h
511 02-08-2008 15:05:48 27 C 6.95 g/m*3 27 C 0 km/h
512 02-08-2008 15:35:48 27.3 C 6.8 g/m*3 27.3 C 0 km/h
513 02-08-2008 16:05:48 26.9 C 6.91 g/m*3 26.9 C 0 km/h
514 02-08-2008 16:35:48 23.3 C 9.62 g/m*3 23.3 C 0 km/h
515 02-08-2008 17:05:48 24.6 C 8.55 g/m*3 24.6 C 0 km/h
516 02-08-2008 17:35:02 24.9 C 8.24 g/m*3 24.9 C 0 km/h
517 02-08-2008 18:05:02 24.7 C 8.15 g/m*3 24.7 C 0 km/h
518 02-08-2008 18:35:02 24.1 C 8.53 g/m*3 24.1 C 0 km/h
519 02-08-2008 19:05:04 24.7 C 8.83 g/m*3 24.7 C 0 km/h
520 02-08-2008 19:35:02 24.1 C 8.1 g/m*3 24.1 C 0 km/h
521 02-08-2008 20:05:02 23.7 C 8.34 g/m*3 23.7 C 0 km/h
522 02-08-2008 20:35:01 22.8 C 8.94 g/m*3 22.8 C 0 km/h
523 02-08-2008 21:05:03 22 C 8.93 g/m*3 22 C 0 km/h
524 02-08-2008 21:35:03 21.8 C 9.4 g/m*3 21.8 C 0 km/h
525 02-08-2008 22:05:04 21.5 C 9.62 g/m*3 21.5 C 0 km/h
Sensor: Nr:Datum:Temp:Abs-Feuchte:Windchill:Wind:
Aussen-T/F 526 02-08-2008 22:35:03 21.2 C 10.01 g/m*3 21.2 C 0 km/h
527 02-08-2008 23:05:02 20.7 C 10.26 g/m*3 20.7 C 0 km/h
528 02-08-2008 23:35:02 20.6 C 10.74 g/m*3 20.6 C 0 km/h
529 03-08-2008 00:05:03 20.4 C 11.14 g/m*3 20.4 C 0 km/h
530 03-08-2008 00:35:03 19 C 12.06 g/m*3 19 C 0 km/h
531 03-08-2008 01:05:02 19.2 C 12.2 g/m*3 19.2 C 0 km/h
532 03-08-2008 01:35:03 19.6 C 11.99 g/m*3 19.6 C 0 km/h
533 03-08-2008 02:05:02 18.4 C 13.05 g/m*3 18.4 C 0 km/h
534 03-08-2008 02:35:03 18.4 C 13.68 g/m*3 18.4 C 0 km/h
535 03-08-2008 03:06:03 18.2 C 13.68 g/m*3 18.2 C 0 km/h
536 03-08-2008 03:36:02 18.2 C 13.68 g/m*3 18.2 C 0 km/h
537 03-08-2008 04:06:02 17.7 C 12.98 g/m*3 17.7 C 0 km/h
538 03-08-2008 04:36:02 17.6 C 13.05 g/m*3 17.6 C 0 km/h
539 03-08-2008 05:06:01 17.3 C 12.96 g/m*3 17.3 C 0 km/h
540 03-08-2008 05:36:01 17.5 C 13.27 g/m*3 17.5 C 0 km/h
541 03-08-2008 06:06:03 17.5 C 13.27 g/m*3 17.5 C 0 km/h
542 03-08-2008 06:36:03 17.5 C 13.27 g/m*3 17.5 C 0 km/h
543 03-08-2008 07:06:02 17.7 C 12.82 g/m*3 17.7 C 0 km/h
544 03-08-2008 07:36:02 17.8 C 11.99 g/m*3 17.8 C 0 km/h
545 03-08-2008 08:06:02 17.9 C 10.84 g/m*3 17.9 C 0 km/h
546 03-08-2008 08:36:02 18.3 C 10.79 g/m*3 18.3 C 0 km/h
547 03-08-2008 09:06:02 19 C 10.1 g/m*3 19 C 0 km/h
548 03-08-2008 09:36:02 19.5 C 10.41 g/m*3 19.5 C 0 km/h
549 03-08-2008 10:06:02 20.1 C 9.91 g/m*3 20.1 C 0 km/h
550 03-08-2008 10:36:02 21.1 C 9.95 g/m*3 21.1 C 0 km/h
Sensor: Nr:Datum:Temp:Abs-Feuchte:Windchill:Wind:
Aussen-T/F 551 03-08-2008 11:06:01 22 C 9.7 g/m*3 22 C 0 km/h
552 03-08-2008 11:36:01 23.6 C 9.57 g/m*3 23.6 C 0 km/h
553 03-08-2008 12:00:01 22.6 C 9.24 g/m*3 22.6 C 0 km/h
554 03-08-2008 12:12:02 22.6 C 9.04 g/m*3 22.6 C 0 km/h
555 03-08-2008 12:24:01 22.5 C 8.99 g/m*3 22.5 C 0 km/h
556 03-08-2008 12:36:02 23 C 8.84 g/m*3 23 C 0 km/h
557 03-08-2008 12:48:02 23.1 C 9.1 g/m*3 23.1 C 0 km/h
558 03-08-2008 13:00:02 23.4 C 9.04 g/m*3 23.4 C 0 km/h
559 03-08-2008 13:12:01 23.3 C 9.62 g/m*3 23.3 C 0 km/h
560 03-08-2008 13:24:02 23.2 C 9.15 g/m*3 23.2 C 0 km/h
561 03-08-2008 13:36:02 24.6 C 9.23 g/m*3 24.6 C 0 km/h
562 03-08-2008 13:48:02 26.7 C 8.86 g/m*3 26.7 C 0 km/h
563 03-08-2008 14:00:02 26.5 C 9.01 g/m*3 26.5 C 0 km/h
564 03-08-2008 14:12:02 26.7 C 8.86 g/m*3 26.7 C 0 km/h
565 03-08-2008 14:24:01 26.2 C 9.11 g/m*3 26.2 C 0 km/h
566 03-08-2008 14:36:02 27.2 C 9.11 g/m*3 27.2 C 0 km/h
567 03-08-2008 14:48:02 27.1 C 8.8 g/m*3 27.1 C 0 km/h
568 03-08-2008 15:00:03 27.4 C 8.95 g/m*3 27.4 C 0 km/h
569 03-08-2008 15:12:02 27.6 C 8.78 g/m*3 27.6 C 0 km/h
570 03-08-2008 15:24:03 26.9 C 8.7 g/m*3 26.9 C 0 km/h
571 03-08-2008 15:36:03 27 C 9.01 g/m*3 27 C 0 km/h
572 03-08-2008 15:48:02 27.3 C 9.16 g/m*3 27.3 C 0 km/h
573 03-08-2008 16:00:02 27.7 C 9.36 g/m*3 27.7 C 0 km/h
574 03-08-2008 16:12:02 27.9 C 9.2 g/m*3 27.9 C 0 km/h
575 03-08-2008 16:24:02 28 C 8.97 g/m*3 28 C 0 km/h
Sensor: Nr:Datum:Temp:Abs-Feuchte:Windchill:Wind:
Aussen-T/F 576 03-08-2008 16:36:01 27.2 C 9.11 g/m*3 27.2 C 0 km/h
577 03-08-2008 16:48:02 27.2 C 9.11 g/m*3 27.2 C 0 km/h
578 03-08-2008 17:00:02 28 C 8.97 g/m*3 28 C 0 km/h
579 03-08-2008 17:12:03 28 C 8.7 g/m*3 28 C 0 km/h
580 03-08-2008 17:48:02 28.4 C 8.62 g/m*3 28.4 C 0 km/h
581 03-08-2008 18:00:02 28.4 C 8.9 g/m*3 28.4 C 0 km/h
582 03-08-2008 18:12:03 28.8 C 8.81 g/m*3 28.8 C 0 km/h
583 03-08-2008 18:24:03 27.5 C 8.73 g/m*3 27.5 C 0 km/h
584 03-08-2008 18:36:02 27.2 C 8.85 g/m*3 27.2 C 0 km/h
585 03-08-2008 18:48:02 27.3 C 9.16 g/m*3 27.3 C 0 km/h
586 03-08-2008 19:00:02 27.1 C 9.06 g/m*3 27.1 C 0 km/h
587 03-08-2008 19:12:02 27.3 C 9.16 g/m*3 27.3 C 0 km/h
588 03-08-2008 19:24:02 26.6 C 9.31 g/m*3 26.6 C 0 km/h
589 03-08-2008 19:36:02 26.1 C 9.3 g/m*3 26.1 C 0 km/h
590 03-08-2008 19:48:02 25.8 C 9.63 g/m*3 25.8 C 0 km/h
591 03-08-2008 20:00:03 25.7 C 9.58 g/m*3 25.7 C 0 km/h
592 03-08-2008 20:12:02 25.3 C 9.83 g/m*3 25.3 C 0 km/h
593 03-08-2008 20:24:02 25 C 9.67 g/m*3 25 C 0 km/h
594 03-08-2008 20:36:02 24.8 C 10.02 g/m*3 24.8 C 0 km/h
595 03-08-2008 20:48:02 24.7 C 10.19 g/m*3 24.7 C 0 km/h
596 03-08-2008 21:00:02 24.5 C 10.3 g/m*3 24.5 C 0 km/h
597 03-08-2008 21:12:02 24.3 C 10.4 g/m*3 24.3 C 0 km/h
598 03-08-2008 21:24:02 24.1 C 10.94 g/m*3 24.1 C 0 km/h
599 03-08-2008 21:36:03 23.6 C 11.27 g/m*3 23.6 C 0 km/h
600 03-08-2008 21:48:02 22.6 C 12.46 g/m*3 22.6 C 0 km/h
Sensor: Nr:Datum:Temp:Abs-Feuchte:Windchill:Wind:
Aussen-T/F 601 03-08-2008 22:00:02 22.7 C 12.32 g/m*3 22.7 C 0 km/h
602 03-08-2008 22:12:03 22.9 C 12.06 g/m*3 22.9 C 0 km/h
603 03-08-2008 22:24:02 22.7 C 11.92 g/m*3 22.7 C 0 km/h
604 03-08-2008 22:37:04 22.6 C 11.85 g/m*3 22.6 C 0 km/h
605 03-08-2008 22:49:04 22.5 C 11.98 g/m*3 22.5 C 0 km/h
606 03-08-2008 23:01:05 22.2 C 11.98 g/m*3 22.2 C 0 km/h
607 03-08-2008 23:13:05 22.1 C 11.91 g/m*3 22.1 C 0 km/h
608 03-08-2008 23:25:05 22 C 12.23 g/m*3 22 C 0 km/h
609 03-08-2008 23:37:05 21.8 C 12.28 g/m*3 21.8 C 0 km/h
610 03-08-2008 23:49:05 21.9 C 12.35 g/m*3 21.9 C 0 km/h
611 04-08-2008 00:01:05 21.8 C 12.28 g/m*3 21.8 C 0 km/h
612 04-08-2008 00:13:05 21.8 C 12.28 g/m*3 21.8 C 0 km/h
613 04-08-2008 00:25:05 21.6 C 12.33 g/m*3 21.6 C 0 km/h
614 04-08-2008 00:37:05 21.3 C 12.3 g/m*3 21.3 C 0 km/h
615 04-08-2008 00:49:05 21.3 C 12.3 g/m*3 21.3 C 0 km/h
616 04-08-2008 01:01:05 21.6 C 12.14 g/m*3 21.6 C 0 km/h
617 04-08-2008 01:13:05 21.8 C 11.9 g/m*3 21.8 C 0 km/h
618 04-08-2008 01:25:05 22.1 C 11.91 g/m*3 22.1 C 0 km/h
619 04-08-2008 01:37:05 22.6 C 11.85 g/m*3 22.6 C 0 km/h
620 04-08-2008 01:49:05 22.9 C 11.65 g/m*3 22.9 C 0 km/h
621 04-08-2008 02:01:05 23.1 C 11.37 g/m*3 23.1 C 0 km/h
622 04-08-2008 02:13:05 23.3 C 11.29 g/m*3 23.3 C 0 km/h
623 04-08-2008 02:25:05 23.4 C 11.14 g/m*3 23.4 C 0 km/h
624 04-08-2008 02:37:05 23.5 C 11.21 g/m*3 23.5 C 0 km/h
625 04-08-2008 02:49:06 23.4 C 11.14 g/m*3 23.4 C 0 km/h
Sensor: Nr:Datum:Temp:Abs-Feuchte:Windchill:Wind:
Aussen-T/F 626 04-08-2008 03:01:06 23.3 C 11.29 g/m*3 23.3 C 0 km/h
627 04-08-2008 03:13:06 23.2 C 11.23 g/m*3 23.2 C 0 km/h
628 04-08-2008 03:25:06 23 C 11.3 g/m*3 23 C 0 km/h
629 04-08-2008 03:37:06 22.9 C 11.44 g/m*3 22.9 C 0 km/h
630 04-08-2008 03:49:06 21.5 C 12.63 g/m*3 21.5 C 0 km/h
631 04-08-2008 04:01:06 19.8 C 13.84 g/m*3 19.8 C 0 km/h
632 04-08-2008 04:13:06 19.5 C 14.1 g/m*3 19.5 C 0 km/h
633 04-08-2008 04:25:06 19.4 C 14.18 g/m*3 19.4 C 0 km/h
634 04-08-2008 04:37:06 19.1 C 13.93 g/m*3 19.1 C 0 km/h
635 04-08-2008 04:49:06 19.2 C 13.36 g/m*3 19.2 C 0 km/h
636 04-08-2008 05:01:06 18.9 C 13.28 g/m*3 18.9 C 0 km/h
637 04-08-2008 05:13:06 18.8 C 13.53 g/m*3 18.8 C 0 km/h
638 04-08-2008 05:25:06 18.4 C 13.21 g/m*3 18.4 C 0 km/h
639 04-08-2008 05:37:06 17.9 C 12.83 g/m*3 17.9 C 0 km/h
640 04-08-2008 05:49:06 17.7 C 12.82 g/m*3 17.7 C 0 km/h
641 04-08-2008 06:01:06 17.6 C 12.9 g/m*3 17.6 C 0 km/h
642 04-08-2008 06:13:06 17.5 C 12.97 g/m*3 17.5 C 0 km/h
643 04-08-2008 06:25:06 17.2 C 12.89 g/m*3 17.2 C 0 km/h
644 04-08-2008 06:37:06 16.9 C 12.8 g/m*3 16.9 C 0 km/h
645 04-08-2008 06:49:06 16.8 C 12.72 g/m*3 16.8 C 0 km/h
646 04-08-2008 07:01:07 16.6 C 12.71 g/m*3 16.6 C 0 km/h
647 04-08-2008 07:13:07 16.3 C 12.49 g/m*3 16.3 C 0 km/h
648 04-08-2008 07:25:07 16.4 C 12.56 g/m*3 16.4 C 0 km/h
649 04-08-2008 07:37:07 16.5 C 12.64 g/m*3 16.5 C 0 km/h
650 04-08-2008 07:49:07 16.5 C 12.64 g/m*3 16.5 C 0 km/h
Sensor: Nr:Datum:Temp:Abs-Feuchte:Windchill:Wind:
Aussen-T/F 651 04-08-2008 08:01:07 17 C 12.73 g/m*3 17 C 0 km/h
652 04-08-2008 08:13:07 17.2 C 12.59 g/m*3 17.2 C 0 km/h
653 04-08-2008 08:25:07 17.4 C 12.6 g/m*3 17.4 C 0 km/h
654 04-08-2008 08:37:07 17.9 C 12.98 g/m*3 17.9 C 0 km/h
655 04-08-2008 08:49:07 18.1 C 12.98 g/m*3 18.1 C 0 km/h
656 04-08-2008 09:01:07 18 C 12.75 g/m*3 18 C 0 km/h
657 04-08-2008 09:13:07 17.9 C 12.67 g/m*3 17.9 C 0 km/h
658 04-08-2008 09:25:04 18.1 C 12.36 g/m*3 18.1 C 0 km/h
659 04-08-2008 09:37:04 18.6 C 12.73 g/m*3 18.6 C 0 km/h
660 04-08-2008 09:49:02 19.1 C 12.62 g/m*3 19.1 C 0 km/h
661 04-08-2008 10:01:02 19.1 C 11.8 g/m*3 19.1 C 0 km/h
662 04-08-2008 10:13:02 19 C 11.41 g/m*3 19 C 0 km/h
663 04-08-2008 10:25:01 19.4 C 11.85 g/m*3 19.4 C 0 km/h
664 04-08-2008 10:37:02 19.9 C 11.34 g/m*3 19.9 C 0 km/h
665 04-08-2008 10:49:02 20.4 C 10.08 g/m*3 20.4 C 0 km/h
666 04-08-2008 11:01:03 20.7 C 9.9 g/m*3 20.7 C 0 km/h
667 04-08-2008 11:13:03 20.8 C 9.42 g/m*3 20.8 C 0 km/h
668 04-08-2008 11:25:02 21.4 C 9.19 g/m*3 21.4 C 0 km/h
669 04-08-2008 11:37:02 21.8 C 9.4 g/m*3 21.8 C 0 km/h
670 04-08-2008 11:49:02 22 C 8.73 g/m*3 22 C 0 km/h
671 04-08-2008 12:01:02 22.6 C 8.84 g/m*3 22.6 C 0 km/h
672 04-08-2008 12:13:02 22.9 C 8.38 g/m*3 22.9 C 0 km/h
673 04-08-2008 12:25:02 23.7 C 7.91 g/m*3 23.7 C 0 km/h
674 04-08-2008 12:37:02 23.1 C 7.65 g/m*3 23.1 C 0 km/h
675 04-08-2008 12:49:02 23.4 C 7.57 g/m*3 23.4 C 0 km/h
Sensor: Nr:Datum:Temp:Abs-Feuchte:Windchill:Wind:
Aussen-T/F 676 04-08-2008 13:01:02 24.4 C 7.12 g/m*3 24.4 C 0 km/h
677 04-08-2008 13:13:02 24 C 6.74 g/m*3 24 C 0 km/h
678 04-08-2008 13:25:02 24 C 6.53 g/m*3 24 C 0 km/h
679 04-08-2008 13:37:02 24.5 C 6.94 g/m*3 24.5 C 0 km/h
680 04-08-2008 13:49:03 24.8 C 6.37 g/m*3 24.8 C 0 km/h
681 04-08-2008 14:01:03 25.7 C 6.46 g/m*3 25.7 C 0 km/h
682 04-08-2008 14:13:03 25.4 C 7.06 g/m*3 25.4 C 0 km/h
683 04-08-2008 14:25:03 24.8 C 7.97 g/m*3 24.8 C 0 km/h
684 04-08-2008 14:37:02 24.4 C 8.23 g/m*3 24.4 C 0 km/h
685 04-08-2008 14:49:02 25.3 C 7.26 g/m*3 25.3 C 0 km/h
686 04-08-2008 15:01:01 25.2 C 6.52 g/m*3 25.2 C 0 km/h
687 04-08-2008 15:13:01 24.7 C 6.34 g/m*3 24.7 C 0 km/h
688 04-08-2008 15:25:02 25.1 C 6.48 g/m*3 25.1 C 0 km/h
689 04-08-2008 15:37:01 25.9 C 6.29 g/m*3 25.9 C 0 km/h
690 04-08-2008 15:49:02 27.1 C 5.69 g/m*3 27.1 C 0 km/h
691 04-08-2008 16:01:02 26.2 C 5.66 g/m*3 26.2 C 0 km/h
692 04-08-2008 16:13:02 26.9 C 5.63 g/m*3 26.9 C 0 km/h
693 04-08-2008 16:25:02 26.8 C 5.6 g/m*3 26.8 C 0 km/h
694 04-08-2008 16:37:02 25.8 C 5.3 g/m*3 25.8 C 0 km/h
695 04-08-2008 16:49:03 26.3 C 6.19 g/m*3 26.3 C 0 km/h
696 04-08-2008 17:01:02 27.2 C 5.99 g/m*3 27.2 C 0 km/h
697 04-08-2008 17:13:02 26.3 C 6.19 g/m*3 26.3 C 0 km/h
698 04-08-2008 17:25:03 26.7 C 5.57 g/m*3 26.7 C 0 km/h
699 04-08-2008 17:37:02 26.2 C 5.42 g/m*3 26.2 C 0 km/h
700 04-08-2008 17:49:02 26.3 C 5.2 g/m*3 26.3 C 0 km/h
Sensor: Nr:Datum:Temp:Abs-Feuchte:Windchill:Wind:
Aussen-T/F 701 04-08-2008 18:01:02 26.5 C 5.51 g/m*3 26.5 C 0 km/h
702 04-08-2008 18:13:02 26.6 C 5.54 g/m*3 26.6 C 0 km/h
703 04-08-2008 18:25:02 25.9 C 5.57 g/m*3 25.9 C 0 km/h
704 04-08-2008 18:37:02 26.1 C 5.63 g/m*3 26.1 C 0 km/h
705 04-08-2008 18:49:01 25.7 C 5.99 g/m*3 25.7 C 0 km/h
706 04-08-2008 19:01:02 26 C 5.6 g/m*3 26 C 0 km/h
707 04-08-2008 19:13:02 25.9 C 6.29 g/m*3 25.9 C 0 km/h
708 04-08-2008 19:25:01 26.1 C 6.12 g/m*3 26.1 C 0 km/h
709 04-08-2008 19:37:02 26.1 C 5.88 g/m*3 26.1 C 0 km/h
710 04-08-2008 19:49:02 25.4 C 5.89 g/m*3 25.4 C 0 km/h
711 04-08-2008 20:01:02 24.5 C 5.82 g/m*3 24.5 C 0 km/h
712 04-08-2008 20:13:02 23.9 C 6.06 g/m*3 23.9 C 0 km/h
713 04-08-2008 20:25:02 23.4 C 6.1 g/m*3 23.4 C 0 km/h
714 04-08-2008 20:37:02 23.1 C 6.41 g/m*3 23.1 C 0 km/h
715 04-08-2008 20:49:02 22.5 C 6.99 g/m*3 22.5 C 0 km/h
716 04-08-2008 21:01:01 21.8 C 6.91 g/m*3 21.8 C 0 km/h
717 04-08-2008 21:13:01 21.5 C 7.17 g/m*3 21.5 C 0 km/h
718 04-08-2008 21:25:02 21 C 7.14 g/m*3 21 C 0 km/h
719 04-08-2008 21:37:01 20.6 C 7.16 g/m*3 20.6 C 0 km/h
720 04-08-2008 21:49:03 20.4 C 7.25 g/m*3 20.4 C 0 km/h
721 04-08-2008 22:01:02 20.3 C 7.39 g/m*3 20.3 C 0 km/h
722 04-08-2008 22:13:02 19.9 C 7.56 g/m*3 19.9 C 0 km/h
723 04-08-2008 22:25:03 19.5 C 7.55 g/m*3 19.5 C 0 km/h
724 04-08-2008 22:38:13 19.3 C 7.8 g/m*3 19.3 C 0 km/h
725 04-08-2008 22:50:13 19.2 C 7.75 g/m*3 19.2 C 0 km/h
Sensor: Nr:Datum:Temp:Abs-Feuchte:Windchill:Wind:
Aussen-T/F 726 04-08-2008 23:02:13 19.2 C 7.91 g/m*3 19.2 C 0 km/h
727 04-08-2008 23:14:13 19.3 C 7.8 g/m*3 19.3 C 0 km/h
728 04-08-2008 23:26:13 19.1 C 8.03 g/m*3 19.1 C 0 km/h
729 04-08-2008 23:38:13 18.9 C 8.1 g/m*3 18.9 C 0 km/h
730 04-08-2008 23:50:13 18.5 C 8.23 g/m*3 18.5 C 0 km/h
731 05-08-2008 00:02:13 18.4 C 8.18 g/m*3 18.4 C 0 km/h
732 05-08-2008 00:14:14 18.2 C 8.24 g/m*3 18.2 C 0 km/h
733 05-08-2008 00:26:14 18.1 C 8.34 g/m*3 18.1 C 0 km/h
734 05-08-2008 00:38:14 17.7 C 8.75 g/m*3 17.7 C 0 km/h
735 05-08-2008 00:50:14 17.4 C 8.6 g/m*3 17.4 C 0 km/h
736 05-08-2008 01:02:14 17.2 C 8.64 g/m*3 17.2 C 0 km/h
737 05-08-2008 01:14:14 16.8 C 8.86 g/m*3 16.8 C 0 km/h
738 05-08-2008 01:26:14 16.6 C 8.76 g/m*3 16.6 C 0 km/h
739 05-08-2008 01:38:14 16.4 C 8.93 g/m*3 16.4 C 0 km/h
740 05-08-2008 01:50:14 16.2 C 8.96 g/m*3 16.2 C 0 km/h
741 05-08-2008 02:02:14 16 C 8.99 g/m*3 16 C 0 km/h
742 05-08-2008 02:14:14 15.8 C 9.02 g/m*3 15.8 C 0 km/h
743 05-08-2008 02:26:14 15.6 C 8.91 g/m*3 15.6 C 0 km/h
744 05-08-2008 02:38:14 15.5 C 9.12 g/m*3 15.5 C 0 km/h
745 05-08-2008 02:50:14 15.4 C 8.8 g/m*3 15.4 C 0 km/h
746 05-08-2008 03:02:14 15.2 C 8.44 g/m*3 15.2 C 0 km/h
747 05-08-2008 03:14:14 15.3 C 8.62 g/m*3 15.3 C 0 km/h
748 05-08-2008 03:26:14 15.1 C 8.39 g/m*3 15.1 C 0 km/h
749 05-08-2008 03:38:14 15 C 8.59 g/m*3 15 C 0 km/h
750 05-08-2008 03:50:14 14.8 C 8.74 g/m*3 14.8 C 0 km/h
Sensor: Nr:Datum:Temp:Abs-Feuchte:Windchill:Wind:
Aussen-T/F 751 05-08-2008 04:02:14 14.7 C 8.56 g/m*3 14.7 C 0 km/h
752 05-08-2008 04:14:14 14.7 C 8.18 g/m*3 14.7 C 0 km/h
753 05-08-2008 04:26:15 14.5 C 8.58 g/m*3 14.5 C 0 km/h
754 05-08-2008 04:38:15 14.2 C 8.55 g/m*3 14.2 C 0 km/h
755 05-08-2008 04:50:15 14.2 C 8.43 g/m*3 14.2 C 0 km/h
756 05-08-2008 05:02:15 14.1 C 8.25 g/m*3 14.1 C 0 km/h
757 05-08-2008 05:14:15 14 C 8.32 g/m*3 14 C 0 km/h
758 05-08-2008 05:26:15 13.9 C 8.63 g/m*3 13.9 C 0 km/h
759 05-08-2008 05:38:15 13.7 C 8.64 g/m*3 13.7 C 0 km/h
760 05-08-2008 05:50:15 13.5 C 8.54 g/m*3 13.5 C 0 km/h
761 05-08-2008 06:02:15 13.5 C 8.54 g/m*3 13.5 C 0 km/h
762 05-08-2008 06:14:15 13.4 C 8.6 g/m*3 13.4 C 0 km/h
763 05-08-2008 06:26:15 13.4 C 8.6 g/m*3 13.4 C 0 km/h
764 05-08-2008 06:38:15 13.4 C 8.6 g/m*3 13.4 C 0 km/h
765 05-08-2008 06:50:15 13.5 C 8.66 g/m*3 13.5 C 0 km/h
766 05-08-2008 07:02:15 13.6 C 8.71 g/m*3 13.6 C 0 km/h
767 05-08-2008 07:14:15 13.7 C 8.76 g/m*3 13.7 C 0 km/h
768 05-08-2008 07:26:15 13.9 C 8.75 g/m*3 13.9 C 0 km/h
769 05-08-2008 07:38:15 14.2 C 8.67 g/m*3 14.2 C 0 km/h
770 05-08-2008 07:50:15 14.4 C 8.53 g/m*3 14.4 C 0 km/h
771 05-08-2008 08:02:15 14.6 C 8.63 g/m*3 14.6 C 0 km/h
772 05-08-2008 08:14:15 14.8 C 8.61 g/m*3 14.8 C 0 km/h
773 05-08-2008 08:26:15 15 C 8.46 g/m*3 15 C 0 km/h
774 05-08-2008 08:38:03 15.4 C 8.54 g/m*3 15.4 C 0 km/h
775 05-08-2008 08:50:03 15.6 C 8.38 g/m*3 15.6 C 0 km/h
Sensor: Nr:Datum:Temp:Abs-Feuchte:Windchill:Wind:
Aussen-T/F 776 05-08-2008 09:02:03 15.7 C 8.56 g/m*3 15.7 C 0 km/h
777 05-08-2008 09:14:03 16.1 C 8.5 g/m*3 16.1 C 0 km/h
778 05-08-2008 09:26:02 16.4 C 8.51 g/m*3 16.4 C 0 km/h
779 05-08-2008 09:38:02 16.8 C 8.58 g/m*3 16.8 C 0 km/h
780 05-08-2008 09:50:02 17.2 C 8.49 g/m*3 17.2 C 0 km/h
781 05-08-2008 10:02:03 17.9 C 8.7 g/m*3 17.9 C 0 km/h
782 05-08-2008 10:14:03 18 C 8.45 g/m*3 18 C 0 km/h
783 05-08-2008 10:26:02 18.4 C 8.49 g/m*3 18.4 C 0 km/h
784 05-08-2008 10:38:03 19.1 C 8.52 g/m*3 19.1 C 0 km/h
785 05-08-2008 10:50:03 19.8 C 8.37 g/m*3 19.8 C 0 km/h
786 05-08-2008 11:02:02 20.1 C 8.17 g/m*3 20.1 C 0 km/h
787 05-08-2008 11:14:03 20.5 C 8.19 g/m*3 20.5 C 0 km/h
788 05-08-2008 11:26:02 21.1 C 8.29 g/m*3 21.1 C 0 km/h
789 05-08-2008 11:38:03 22.7 C 7.88 g/m*3 22.7 C 0 km/h
790 05-08-2008 11:50:02 22.2 C 8.05 g/m*3 22.2 C 0 km/h
791 05-08-2008 12:02:02 22.7 C 8.28 g/m*3 22.7 C 0 km/h
792 05-08-2008 12:14:02 23.8 C 7.96 g/m*3 23.8 C 0 km/h
793 05-08-2008 12:26:02 24 C 7.83 g/m*3 24 C 0 km/h
794 05-08-2008 12:38:02 24.5 C 7.83 g/m*3 24.5 C 0 km/h
795 05-08-2008 12:50:01 24.3 C 7.52 g/m*3 24.3 C 0 km/h
796 05-08-2008 13:02:03 24.8 C 7.28 g/m*3 24.8 C 0 km/h
797 05-08-2008 13:14:03 24.6 C 7.2 g/m*3 24.6 C 0 km/h
798 05-08-2008 13:26:02 24.4 C 7.34 g/m*3 24.4 C 0 km/h
799 05-08-2008 13:38:02 25 C 7.37 g/m*3 25 C 0 km/h
800 05-08-2008 13:50:01 25.2 C 7.45 g/m*3 25.2 C 0 km/h
Sensor: Nr:Datum:Temp:Abs-Feuchte:Windchill:Wind:
Aussen-T/F 801 05-08-2008 14:02:02 25.9 C 7.51 g/m*3 25.9 C 0 km/h
802 05-08-2008 14:14:02 26.5 C 7.01 g/m*3 26.5 C 0 km/h
803 05-08-2008 14:26:02 26.9 C 6.65 g/m*3 26.9 C 0 km/h
804 05-08-2008 14:38:02 26.8 C 6.87 g/m*3 26.8 C 0 km/h
805 05-08-2008 14:50:01 27.5 C 6.61 g/m*3 27.5 C 0 km/h
806 05-08-2008 15:02:02 26.9 C 6.65 g/m*3 26.9 C 0 km/h
807 05-08-2008 15:14:02 26.7 C 6.58 g/m*3 26.7 C 0 km/h
808 05-08-2008 15:26:02 26.2 C 7.14 g/m*3 26.2 C 0 km/h
809 05-08-2008 15:38:01 25.8 C 7.22 g/m*3 25.8 C 0 km/h
810 05-08-2008 15:50:01 26.3 C 7.18 g/m*3 26.3 C 0 km/h
811 05-08-2008 16:02:02 26.6 C 7.05 g/m*3 26.6 C 0 km/h
812 05-08-2008 16:14:02 26.6 C 7.3 g/m*3 26.6 C 0 km/h
813 05-08-2008 16:26:01 27.6 C 7.18 g/m*3 27.6 C 0 km/h
814 05-08-2008 16:38:02 28.5 C 6.99 g/m*3 28.5 C 0 km/h
815 05-08-2008 16:50:02 28.6 C 7.03 g/m*3 28.6 C 0 km/h
816 05-08-2008 17:02:02 29.1 C 6.35 g/m*3 29.1 C 0 km/h
817 05-08-2008 17:14:02 29.6 C 6.53 g/m*3 29.6 C 0 km/h
818 05-08-2008 17:26:02 27.9 C 6.76 g/m*3 27.9 C 0 km/h
819 05-08-2008 17:38:02 27.2 C 6.77 g/m*3 27.2 C 0 km/h
820 05-08-2008 17:50:02 28.3 C 6.91 g/m*3 28.3 C 0 km/h
821 05-08-2008 18:02:02 28.8 C 6.53 g/m*3 28.8 C 0 km/h
822 05-08-2008 18:14:02 27.1 C 6.47 g/m*3 27.1 C 0 km/h
823 05-08-2008 18:26:02 26.7 C 7.59 g/m*3 26.7 C 0 km/h
824 05-08-2008 18:38:02 26.6 C 8.05 g/m*3 26.6 C 0 km/h
825 05-08-2008 18:50:02 26.2 C 7.88 g/m*3 26.2 C 0 km/h
Sensor: Nr:Datum:Temp:Abs-Feuchte:Windchill:Wind:
Aussen-T/F 826 05-08-2008 19:02:01 25.8 C 7.7 g/m*3 25.8 C 0 km/h
827 05-08-2008 19:14:01 25.9 C 7.99 g/m*3 25.9 C 0 km/h
828 05-08-2008 19:26:02 25.6 C 8.09 g/m*3 25.6 C 0 km/h
829 05-08-2008 19:38:01 25.1 C 8.33 g/m*3 25.1 C 0 km/h
830 05-08-2008 19:50:01 24.7 C 8.37 g/m*3 24.7 C 0 km/h
831 05-08-2008 20:02:02 24.7 C 8.37 g/m*3 24.7 C 0 km/h
832 05-08-2008 20:14:02 24.1 C 8.1 g/m*3 24.1 C 0 km/h
833 05-08-2008 20:26:02 23.5 C 8.25 g/m*3 23.5 C 0 km/h
834 05-08-2008 20:38:01 22.9 C 8.58 g/m*3 22.9 C 0 km/h
835 05-08-2008 20:50:02 22.4 C 8.34 g/m*3 22.4 C 0 km/h
836 05-08-2008 21:02:03 21.9 C 8.68 g/m*3 21.9 C 0 km/h
837 05-08-2008 21:14:03 21.5 C 8.67 g/m*3 21.5 C 0 km/h
838 05-08-2008 21:26:03 21.2 C 8.52 g/m*3 21.2 C 0 km/h
839 05-08-2008 21:38:02 21 C 8.43 g/m*3 21 C 0 km/h
840 05-08-2008 21:50:03 20.9 C 9.11 g/m*3 20.9 C 0 km/h
841 05-08-2008 22:02:02 21 C 8.98 g/m*3 21 C 0 km/h
842 05-08-2008 22:14:02 20.8 C 9.05 g/m*3 20.8 C 0 km/h
843 05-08-2008 22:26:03 20.6 C 9.13 g/m*3 20.6 C 0 km/h
844 05-08-2008 22:39:03 20.3 C 9.15 g/m*3 20.3 C 0 km/h
845 05-08-2008 22:51:03 20 C 8.81 g/m*3 20 C 0 km/h
846 05-08-2008 23:03:03 19.9 C 8.93 g/m*3 19.9 C 0 km/h
847 05-08-2008 23:15:03 19.5 C 8.89 g/m*3 19.5 C 0 km/h
848 05-08-2008 23:27:03 19.3 C 8.79 g/m*3 19.3 C 0 km/h
849 05-08-2008 23:39:03 19.2 C 9.07 g/m*3 19.2 C 0 km/h
850 05-08-2008 23:51:03 18.9 C 9.23 g/m*3 18.9 C 0 km/h
Sensor: Nr:Datum:Temp:Abs-Feuchte:Windchill:Wind:
Aussen-T/F 851 06-08-2008 00:03:04 18.9 C 9.23 g/m*3 18.9 C 0 km/h
852 06-08-2008 00:15:04 18.7 C 9.13 g/m*3 18.7 C 0 km/h
853 06-08-2008 00:27:04 18.7 C 9.29 g/m*3 18.7 C 0 km/h
854 06-08-2008 00:39:04 18.6 C 9.39 g/m*3 18.6 C 0 km/h
855 06-08-2008 00:51:04 18.4 C 9.28 g/m*3 18.4 C 0 km/h
856 06-08-2008 01:03:04 18.3 C 9.22 g/m*3 18.3 C 0 km/h
857 06-08-2008 01:15:04 18.1 C 9.43 g/m*3 18.1 C 0 km/h
858 06-08-2008 01:27:04 17.9 C 9.47 g/m*3 17.9 C 0 km/h
859 06-08-2008 01:39:04 17.9 C 9.62 g/m*3 17.9 C 0 km/h
860 06-08-2008 01:51:04 17.7 C 9.66 g/m*3 17.7 C 0 km/h
861 06-08-2008 02:03:04 17.6 C 9.6 g/m*3 17.6 C 0 km/h
862 06-08-2008 02:15:04 17.5 C 9.54 g/m*3 17.5 C 0 km/h
863 06-08-2008 02:27:04 17.4 C 9.48 g/m*3 17.4 C 0 km/h
864 06-08-2008 02:39:04 17.5 C 9.69 g/m*3 17.5 C 0 km/h
865 06-08-2008 02:51:04 17.6 C 9.6 g/m*3 17.6 C 0 km/h
866 06-08-2008 03:03:04 17.4 C 9.63 g/m*3 17.4 C 0 km/h
867 06-08-2008 03:15:04 17 C 9.41 g/m*3 17 C 0 km/h
868 06-08-2008 03:27:04 16.8 C 9.72 g/m*3 16.8 C 0 km/h
869 06-08-2008 03:39:04 16.7 C 9.81 g/m*3 16.7 C 0 km/h
870 06-08-2008 03:51:05 16.6 C 9.75 g/m*3 16.6 C 0 km/h
871 06-08-2008 04:03:05 16.6 C 9.75 g/m*3 16.6 C 0 km/h
872 06-08-2008 04:15:05 16.6 C 9.75 g/m*3 16.6 C 0 km/h
873 06-08-2008 04:27:05 16.4 C 9.77 g/m*3 16.4 C 0 km/h
874 06-08-2008 04:39:05 16.2 C 9.79 g/m*3 16.2 C 0 km/h
875 06-08-2008 04:51:05 16 C 9.81 g/m*3 16 C 0 km/h
Sensor: Nr:Datum:Temp:Abs-Feuchte:Windchill:Wind:
Aussen-T/F 876 06-08-2008 05:03:05 15.9 C 9.89 g/m*3 15.9 C 0 km/h
877 06-08-2008 05:15:05 15.7 C 9.77 g/m*3 15.7 C 0 km/h
878 06-08-2008 05:27:05 15.6 C 9.84 g/m*3 15.6 C 0 km/h
879 06-08-2008 05:39:05 15.4 C 9.72 g/m*3 15.4 C 0 km/h
880 06-08-2008 05:51:05 15.3 C 9.79 g/m*3 15.3 C 0 km/h
881 06-08-2008 06:03:05 15.2 C 9.73 g/m*3 15.2 C 0 km/h
882 06-08-2008 06:15:05 15.2 C 9.99 g/m*3 15.2 C 0 km/h
883 06-08-2008 06:27:05 15.1 C 9.93 g/m*3 15.1 C 0 km/h
884 06-08-2008 06:39:05 14.9 C 9.94 g/m*3 14.9 C 0 km/h
885 06-08-2008 06:51:02 14.9 C 9.94 g/m*3 14.9 C 0 km/h
886 06-08-2008 07:03:01 15.2 C 10.12 g/m*3 15.2 C 0 km/h
887 06-08-2008 07:15:02 15.3 C 10.19 g/m*3 15.3 C 0 km/h
888 06-08-2008 07:27:02 15.5 C 10.31 g/m*3 15.5 C 0 km/h
889 06-08-2008 07:39:01 15.6 C 10.24 g/m*3 15.6 C 0 km/h
890 06-08-2008 07:51:02 15.8 C 10.36 g/m*3 15.8 C 0 km/h
891 06-08-2008 08:03:01 15.9 C 10.29 g/m*3 15.9 C 0 km/h
892 06-08-2008 08:15:02 16.2 C 10.34 g/m*3 16.2 C 0 km/h
893 06-08-2008 08:27:02 16.4 C 10.33 g/m*3 16.4 C 0 km/h
894 06-08-2008 08:39:01 16.6 C 10.45 g/m*3 16.6 C 0 km/h
895 06-08-2008 08:51:01 16.9 C 10.36 g/m*3 16.9 C 0 km/h
896 06-08-2008 09:03:01 17.3 C 10.16 g/m*3 17.3 C 0 km/h
897 06-08-2008 09:15:02 17.8 C 10.47 g/m*3 17.8 C 0 km/h
898 06-08-2008 09:27:02 18.3 C 10.32 g/m*3 18.3 C 0 km/h
899 06-08-2008 09:39:01 18.9 C 10.69 g/m*3 18.9 C 0 km/h
900 06-08-2008 09:51:01 19.3 C 10.62 g/m*3 19.3 C 0 km/h
Sensor: Nr:Datum:Temp:Abs-Feuchte:Windchill:Wind:
Aussen-T/F 901 06-08-2008 10:03:01 20 C 10.54 g/m*3 20 C 0 km/h
902 06-08-2008 10:15:01 20.9 C 10.56 g/m*3 20.9 C 0 km/h
903 06-08-2008 10:27:01 21.7 C 10.11 g/m*3 21.7 C 0 km/h
904 06-08-2008 10:39:01 22.2 C 10.01 g/m*3 22.2 C 0 km/h
905 06-08-2008 10:51:01 23.2 C 9.98 g/m*3 23.2 C 0 km/h
906 06-08-2008 11:03:02 23.7 C 10.27 g/m*3 23.7 C 0 km/h
907 06-08-2008 11:15:01 24.3 C 9.52 g/m*3 24.3 C 0 km/h
908 06-08-2008 11:27:01 25.1 C 9.26 g/m*3 25.1 C 0 km/h
909 06-08-2008 11:39:02 25.8 C 9.39 g/m*3 25.8 C 0 km/h
910 06-08-2008 11:51:02 26.1 C 9.06 g/m*3 26.1 C 0 km/h
911 06-08-2008 12:03:02 26.9 C 9.47 g/m*3 26.9 C 0 km/h
912 06-08-2008 12:15:01 27.1 C 8.8 g/m*3 27.1 C 0 km/h
913 06-08-2008 12:27:01 27.6 C 9.04 g/m*3 27.6 C 0 km/h
914 06-08-2008 12:39:02 28.1 C 8.75 g/m*3 28.1 C 0 km/h
915 06-08-2008 12:51:02 27.8 C 8.61 g/m*3 27.8 C 0 km/h
916 06-08-2008 13:03:02 28.9 C 8.86 g/m*3 28.9 C 0 km/h
917 06-08-2008 13:15:02 30 C 8.19 g/m*3 30 C 0 km/h
918 06-08-2008 13:27:02 30.6 C 8.14 g/m*3 30.6 C 0 km/h
919 06-08-2008 13:39:02 30.6 C 7.83 g/m*3 30.6 C 0 km/h
920 06-08-2008 13:51:02 30.9 C 7.96 g/m*3 30.9 C 0 km/h
921 06-08-2008 14:03:01 31 C 8 g/m*3 31 C 0 km/h
922 06-08-2008 14:15:02 31.1 C 8.04 g/m*3 31.1 C 0 km/h
923 06-08-2008 14:27:02 30.7 C 8.5 g/m*3 30.7 C 0 km/h
924 06-08-2008 14:39:02 31.3 C 7.81 g/m*3 31.3 C 0 km/h
925 06-08-2008 14:51:02 31.5 C 7.56 g/m*3 31.5 C 0 km/h
Sensor: Nr:Datum:Temp:Abs-Feuchte:Windchill:Wind:
Aussen-T/F 926 06-08-2008 15:03:02 32.1 C 7.47 g/m*3 32.1 C 0 km/h
927 06-08-2008 15:15:02 32.3 C 6.86 g/m*3 32.3 C 0 km/h
928 06-08-2008 15:27:03 32 C 7.09 g/m*3 32 C 0 km/h
929 06-08-2008 15:39:02 32.5 C 6.93 g/m*3 32.5 C 0 km/h
930 06-08-2008 15:51:02 32.7 C 7.01 g/m*3 32.7 C 0 km/h
931 06-08-2008 16:03:02 33 C 7.12 g/m*3 33 C 0 km/h
932 06-08-2008 16:15:02 33.2 C 7.2 g/m*3 33.2 C 0 km/h
933 06-08-2008 16:27:02 33.5 C 7.31 g/m*3 33.5 C 0 km/h
934 06-08-2008 16:39:02 33.6 C 7.35 g/m*3 33.6 C 0 km/h
935 06-08-2008 16:51:02 33.7 C 7.39 g/m*3 33.7 C 0 km/h
936 06-08-2008 17:03:02 33.9 C 7.46 g/m*3 33.9 C 0 km/h
937 06-08-2008 17:15:02 33.9 C 7.46 g/m*3 33.9 C 0 km/h
938 06-08-2008 17:27:02 33.6 C 7.35 g/m*3 33.6 C 0 km/h
939 06-08-2008 17:39:02 33.7 C 7.39 g/m*3 33.7 C 0 km/h
940 06-08-2008 17:51:02 33.8 C 7.43 g/m*3 33.8 C 0 km/h
941 06-08-2008 18:03:02 34 C 7.5 g/m*3 34 C 0 km/h
942 06-08-2008 18:15:02 34.2 C 7.58 g/m*3 34.2 C 0 km/h
943 06-08-2008 18:27:02 33.9 C 7.46 g/m*3 33.9 C 0 km/h
944 06-08-2008 18:39:02 34 C 7.5 g/m*3 34 C 0 km/h
945 06-08-2008 18:51:02 33.9 C 7.46 g/m*3 33.9 C 0 km/h
946 06-08-2008 19:03:01 33.9 C 7.46 g/m*3 33.9 C 0 km/h
947 06-08-2008 19:15:02 33.3 C 7.23 g/m*3 33.3 C 0 km/h
948 06-08-2008 19:27:02 33.3 C 7.59 g/m*3 33.3 C 0 km/h
949 06-08-2008 19:39:02 32.7 C 7.36 g/m*3 32.7 C 0 km/h
950 06-08-2008 19:51:02 31.6 C 8.59 g/m*3 31.6 C 0 km/h
Sensor: Nr:Datum:Temp:Abs-Feuchte:Windchill:Wind:
Aussen-T/F 951 06-08-2008 20:03:02 30.6 C 9.4 g/m*3 30.6 C 0 km/h
952 06-08-2008 20:15:02 30.1 C 9.45 g/m*3 30.1 C 0 km/h
953 06-08-2008 20:27:03 29.5 C 9.44 g/m*3 29.5 C 0 km/h
954 06-08-2008 20:39:02 28.9 C 9.43 g/m*3 28.9 C 0 km/h
955 06-08-2008 20:51:02 28.4 C 9.45 g/m*3 28.4 C 0 km/h
956 06-08-2008 21:03:02 27.8 C 9.15 g/m*3 27.8 C 0 km/h
957 06-08-2008 21:15:03 27.3 C 9.16 g/m*3 27.3 C 0 km/h
958 06-08-2008 21:27:03 27 C 9.01 g/m*3 27 C 0 km/h
959 06-08-2008 21:39:02 26.7 C 9.11 g/m*3 26.7 C 0 km/h
960 06-08-2008 21:51:01 26.6 C 9.31 g/m*3 26.6 C 0 km/h
961 06-08-2008 22:03:01 26.6 C 9.06 g/m*3 26.6 C 0 km/h
962 06-08-2008 22:15:01 26.4 C 9.21 g/m*3 26.4 C 0 km/h
963 06-08-2008 22:27:01 26 C 9.49 g/m*3 26 C 0 km/h
964 06-08-2008 22:40:02 25.8 C 9.39 g/m*3 25.8 C 0 km/h
965 06-08-2008 22:52:02 25.6 C 9.28 g/m*3 25.6 C 0 km/h
966 06-08-2008 23:04:02 25.1 C 9.26 g/m*3 25.1 C 0 km/h
967 06-08-2008 23:16:02 24.8 C 9.79 g/m*3 24.8 C 0 km/h
968 06-08-2008 23:28:02 24.5 C 10.07 g/m*3 24.5 C 0 km/h
969 06-08-2008 23:40:02 24.1 C 9.85 g/m*3 24.1 C 0 km/h
970 06-08-2008 23:52:02 24 C 10.01 g/m*3 24 C 0 km/h
971 07-08-2008 00:04:02 23.7 C 9.84 g/m*3 23.7 C 0 km/h
972 07-08-2008 00:16:02 23.6 C 10.21 g/m*3 23.6 C 0 km/h
973 07-08-2008 00:28:02 23.3 C 10.25 g/m*3 23.3 C 0 km/h
974 07-08-2008 00:40:02 23 C 10.28 g/m*3 23 C 0 km/h
975 07-08-2008 00:52:02 22.7 C 10.51 g/m*3 22.7 C 0 km/h
Sensor: Nr:Datum:Temp:Abs-Feuchte:Windchill:Wind:
Aussen-T/F 976 07-08-2008 01:04:02 22.5 C 10.59 g/m*3 22.5 C 0 km/h
977 07-08-2008 01:16:02 22.3 C 10.66 g/m*3 22.3 C 0 km/h
978 07-08-2008 01:28:02 22.1 C 10.74 g/m*3 22.1 C 0 km/h
979 07-08-2008 01:40:02 21.9 C 11 g/m*3 21.9 C 0 km/h
980 07-08-2008 01:52:03 21.7 C 11.06 g/m*3 21.7 C 0 km/h
981 07-08-2008 02:04:03 21.4 C 11.06 g/m*3 21.4 C 0 km/h
982 07-08-2008 02:16:03 21.3 C 11 g/m*3 21.3 C 0 km/h
983 07-08-2008 02:28:03 21.1 C 11.06 g/m*3 21.1 C 0 km/h
984 07-08-2008 02:40:03 20.9 C 11.29 g/m*3 20.9 C 0 km/h
985 07-08-2008 02:52:03 20.7 C 11.34 g/m*3 20.7 C 0 km/h
986 07-08-2008 03:04:03 20.6 C 11.28 g/m*3 20.6 C 0 km/h
987 07-08-2008 03:16:03 20.4 C 11.14 g/m*3 20.4 C 0 km/h
988 07-08-2008 03:28:03 20.3 C 11.26 g/m*3 20.3 C 0 km/h
989 07-08-2008 03:40:03 20.3 C 11.26 g/m*3 20.3 C 0 km/h
990 07-08-2008 03:52:03 20.2 C 11.19 g/m*3 20.2 C 0 km/h
991 07-08-2008 04:04:03 19.9 C 11.34 g/m*3 19.9 C 0 km/h
992 07-08-2008 04:16:03 19.7 C 11.38 g/m*3 19.7 C 0 km/h
993 07-08-2008 04:28:03 19.6 C 11.31 g/m*3 19.6 C 0 km/h
994 07-08-2008 04:40:03 19.4 C 11.35 g/m*3 19.4 C 0 km/h
995 07-08-2008 04:52:03 19.3 C 11.44 g/m*3 19.3 C 0 km/h
996 07-08-2008 05:04:03 19.3 C 11.44 g/m*3 19.3 C 0 km/h
997 07-08-2008 05:16:03 19.1 C 11.47 g/m*3 19.1 C 0 km/h
998 07-08-2008 05:28:03 18.8 C 11.6 g/m*3 18.8 C 0 km/h
999 07-08-2008 05:40:03 18.8 C 11.6 g/m*3 18.8 C 0 km/h
1000 07-08-2008 05:52:04 18.6 C 11.62 g/m*3 18.6 C 0 km/h
Sensor: Nr:Datum:Temp:Abs-Feuchte:Windchill:Wind:
Aussen-T/F 1001 07-08-2008 06:04:04 18.6 C 11.62 g/m*3 18.6 C 0 km/h
1002 07-08-2008 06:16:04 18.5 C 11.71 g/m*3 18.5 C 0 km/h
1003 07-08-2008 06:28:04 18.4 C 11.64 g/m*3 18.4 C 0 km/h
1004 07-08-2008 06:40:04 18.3 C 11.57 g/m*3 18.3 C 0 km/h
1005 07-08-2008 06:52:04 18.5 C 11.87 g/m*3 18.5 C 0 km/h
1006 07-08-2008 07:04:03 18.7 C 12.01 g/m*3 18.7 C 0 km/h
1007 07-08-2008 07:16:02 18.8 C 11.92 g/m*3 18.8 C 0 km/h
1008 07-08-2008 07:28:02 18.6 C 11.94 g/m*3 18.6 C 0 km/h
1009 07-08-2008 07:40:02 18.8 C 12.08 g/m*3 18.8 C 0 km/h
1010 07-08-2008 07:52:02 19.1 C 11.97 g/m*3 19.1 C 0 km/h
1011 07-08-2008 08:04:02 19.2 C 12.04 g/m*3 19.2 C 0 km/h
1012 07-08-2008 08:16:02 19.6 C 12.15 g/m*3 19.6 C 0 km/h
1013 07-08-2008 08:28:02 19.9 C 12.2 g/m*3 19.9 C 0 km/h
1014 07-08-2008 08:40:02 20.3 C 12.14 g/m*3 20.3 C 0 km/h
1015 07-08-2008 08:52:02 20.9 C 12.38 g/m*3 20.9 C 0 km/h
1016 07-08-2008 09:04:02 21.6 C 12.52 g/m*3 21.6 C 0 km/h
1017 07-08-2008 09:16:02 22.5 C 12.58 g/m*3 22.5 C 0 km/h
1018 07-08-2008 09:28:02 23 C 12.33 g/m*3 23 C 0 km/h
1019 07-08-2008 09:40:02 23.7 C 12.62 g/m*3 23.7 C 0 km/h
1020 07-08-2008 09:52:03 24.2 C 12.54 g/m*3 24.2 C 0 km/h
1021 07-08-2008 10:04:02 24.7 C 12.22 g/m*3 24.7 C 0 km/h
1022 07-08-2008 10:16:02 25.3 C 11.47 g/m*3 25.3 C 0 km/h
1023 07-08-2008 10:28:02 26.2 C 11.32 g/m*3 26.2 C 0 km/h
1024 07-08-2008 10:40:02 26.8 C 11.45 g/m*3 26.8 C 0 km/h
1025 07-08-2008 10:52:02 27.2 C 11.19 g/m*3 27.2 C 0 km/h
Sensor: Nr:Datum:Temp:Abs-Feuchte:Windchill:Wind:
Aussen-T/F 1026 07-08-2008 11:04:02 27.4 C 11.31 g/m*3 27.4 C 0 km/h
1027 07-08-2008 11:16:02 28 C 11.42 g/m*3 28 C 0 km/h
1028 07-08-2008 11:28:02 28.3 C 11.06 g/m*3 28.3 C 0 km/h
1029 07-08-2008 11:40:02 28.3 C 11.33 g/m*3 28.3 C 0 km/h
1030 07-08-2008 11:52:02 28.7 C 10.74 g/m*3 28.7 C 0 km/h
1031 07-08-2008 12:04:02 29.1 C 10.69 g/m*3 29.1 C 0 km/h
1032 07-08-2008 12:16:02 29.1 C 10.69 g/m*3 29.1 C 0 km/h
1033 07-08-2008 12:28:02 28.7 C 10.74 g/m*3 28.7 C 0 km/h
1034 07-08-2008 12:40:02 29.3 C 10.51 g/m*3 29.3 C 0 km/h
1035 07-08-2008 12:52:02 29.9 C 10.56 g/m*3 29.9 C 0 km/h
1036 07-08-2008 13:04:02 30.4 C 10.54 g/m*3 30.4 C 0 km/h
1037 07-08-2008 13:16:02 30.6 C 10.02 g/m*3 30.6 C 0 km/h
1038 07-08-2008 13:28:02 30.4 C 10.23 g/m*3 30.4 C 0 km/h
1039 07-08-2008 13:40:02 29.6 C 10.09 g/m*3 29.6 C 0 km/h
1040 07-08-2008 13:52:01 29.8 C 10.5 g/m*3 29.8 C 0 km/h
1041 07-08-2008 14:04:02 29.4 C 10.57 g/m*3 29.4 C 0 km/h
1042 07-08-2008 14:16:01 29.8 C 10.5 g/m*3 29.8 C 0 km/h
1043 07-08-2008 14:28:01 28.8 C 10.51 g/m*3 28.8 C 0 km/h
1044 07-08-2008 14:40:02 28.1 C 10.39 g/m*3 28.1 C 0 km/h
1045 07-08-2008 14:52:02 28.4 C 10.56 g/m*3 28.4 C 0 km/h
1046 07-08-2008 15:04:02 28 C 10.33 g/m*3 28 C 0 km/h
1047 07-08-2008 15:16:02 28.2 C 10.72 g/m*3 28.2 C 0 km/h
1048 07-08-2008 15:28:02 28.5 C 10.34 g/m*3 28.5 C 0 km/h
1049 07-08-2008 15:40:02 29.2 C 9.87 g/m*3 29.2 C 0 km/h
1050 07-08-2008 15:52:01 29.1 C 9.24 g/m*3 29.1 C 0 km/h
Sensor: Nr:Datum:Temp:Abs-Feuchte:Windchill:Wind:
Aussen-T/F 1051 07-08-2008 16:04:02 29.3 C 9.63 g/m*3 29.3 C 0 km/h
1052 07-08-2008 16:16:01 28.7 C 9.89 g/m*3 28.7 C 0 km/h
1053 07-08-2008 16:28:01 29.3 C 9.63 g/m*3 29.3 C 0 km/h
1054 07-08-2008 16:40:02 29.4 C 9.39 g/m*3 29.4 C 0 km/h
1055 07-08-2008 16:52:02 30.4 C 9.3 g/m*3 30.4 C 0 km/h
1056 07-08-2008 17:04:01 30.7 C 9.13 g/m*3 30.7 C 0 km/h
1057 07-08-2008 17:16:02 30.1 C 8.84 g/m*3 30.1 C 0 km/h
1058 07-08-2008 17:28:02 29.4 C 8.81 g/m*3 29.4 C 0 km/h
1059 07-08-2008 17:40:01 29.4 C 8.81 g/m*3 29.4 C 0 km/h
1060 07-08-2008 17:52:02 28.7 C 8.48 g/m*3 28.7 C 0 km/h
1061 07-08-2008 18:04:01 30.1 C 8.54 g/m*3 30.1 C 0 km/h
1062 07-08-2008 18:16:02 29.9 C 8.14 g/m*3 29.9 C 0 km/h
1063 07-08-2008 18:28:03 28.8 C 8.52 g/m*3 28.8 C 0 km/h
1064 07-08-2008 18:40:01 28.6 C 8.71 g/m*3 28.6 C 0 km/h
1065 07-08-2008 18:52:02 28.5 C 8.66 g/m*3 28.5 C 0 km/h
1066 07-08-2008 19:04:01 28.3 C 8.57 g/m*3 28.3 C 0 km/h
1067 07-08-2008 19:16:02 27.7 C 8.56 g/m*3 27.7 C 0 km/h
1068 07-08-2008 19:28:02 27.1 C 8.54 g/m*3 27.1 C 0 km/h
1069 07-08-2008 19:40:01 26.9 C 8.96 g/m*3 26.9 C 0 km/h
1070 07-08-2008 19:52:02 26.6 C 9.06 g/m*3 26.6 C 0 km/h
1071 07-08-2008 20:04:02 26.7 C 9.11 g/m*3 26.7 C 0 km/h
1072 07-08-2008 20:16:02 27.2 C 8.85 g/m*3 27.2 C 0 km/h
1073 07-08-2008 20:28:02 26.1 C 8.81 g/m*3 26.1 C 0 km/h
1074 07-08-2008 20:40:02 25.4 C 8.71 g/m*3 25.4 C 0 km/h
1075 07-08-2008 20:52:02 24.8 C 8.42 g/m*3 24.8 C 0 km/h
Sensor: Nr:Datum:Temp:Abs-Feuchte:Windchill:Wind:
Aussen-T/F 1076 07-08-2008 21:04:02 24.6 C 8.33 g/m*3 24.6 C 0 km/h
1077 07-08-2008 21:16:02 24.3 C 8.41 g/m*3 24.3 C 0 km/h
1078 07-08-2008 21:28:02 24 C 8.49 g/m*3 24 C 0 km/h
1079 07-08-2008 21:40:02 23.7 C 8.77 g/m*3 23.7 C 0 km/h
1080 07-08-2008 21:52:02 23.4 C 8.83 g/m*3 23.4 C 0 km/h
1081 07-08-2008 22:04:02 23.3 C 8.78 g/m*3 23.3 C 0 km/h
1082 07-08-2008 22:17:02 23.3 C 8.57 g/m*3 23.3 C 0 km/h
1083 07-08-2008 22:29:02 23.1 C 8.27 g/m*3 23.1 C 0 km/h
1084 07-08-2008 22:41:02 23 C 8.43 g/m*3 23 C 0 km/h
1085 07-08-2008 22:53:02 20.4 C 10.79 g/m*3 20.4 C 0 km/h
1086 07-08-2008 23:05:02 19.2 C 12.7 g/m*3 19.2 C 0 km/h
1087 07-08-2008 23:17:02 18.5 C 12.82 g/m*3 18.5 C 0 km/h
1088 07-08-2008 23:29:01 17.9 C 12.67 g/m*3 17.9 C 0 km/h
1089 07-08-2008 23:41:01 17.8 C 12.9 g/m*3 17.8 C 0 km/h
1090 07-08-2008 23:53:02 17.9 C 12.98 g/m*3 17.9 C 0 km/h
1091 08-08-2008 00:05:02 18.2 C 13.06 g/m*3 18.2 C 0 km/h
1092 08-08-2008 00:17:02 18.2 C 12.9 g/m*3 18.2 C 0 km/h
1093 08-08-2008 00:29:02 17.9 C 12.67 g/m*3 17.9 C 0 km/h
1094 08-08-2008 00:41:02 17.8 C 12.6 g/m*3 17.8 C 0 km/h
1095 08-08-2008 00:53:03 17.7 C 12.52 g/m*3 17.7 C 0 km/h
1096 08-08-2008 01:05:03 17.6 C 12.45 g/m*3 17.6 C 0 km/h
1097 08-08-2008 01:17:03 17.6 C 12.45 g/m*3 17.6 C 0 km/h
1098 08-08-2008 01:41:03 17.7 C 12.37 g/m*3 17.7 C 0 km/h
1099 08-08-2008 01:53:03 17.7 C 12.37 g/m*3 17.7 C 0 km/h
1100 08-08-2008 02:05:03 17.7 C 12.22 g/m*3 17.7 C 0 km/h
Sensor: Nr:Datum:Temp:Abs-Feuchte:Windchill:Wind:
Aussen-T/F 1101 08-08-2008 02:29:03 17.8 C 12.45 g/m*3 17.8 C 0 km/h
1102 08-08-2008 02:41:04 17.7 C 12.37 g/m*3 17.7 C 0 km/h
1103 08-08-2008 02:53:04 17.7 C 12.37 g/m*3 17.7 C 0 km/h
1104 08-08-2008 03:05:34 17.6 C 12.3 g/m*3 17.6 C 0 km/h
1105 08-08-2008 03:17:34 17.7 C 12.37 g/m*3 17.7 C 0 km/h
1106 08-08-2008 03:29:34 17.7 C 12.37 g/m*3 17.7 C 0 km/h
1107 08-08-2008 03:41:04 17.7 C 12.37 g/m*3 17.7 C 0 km/h
1108 08-08-2008 03:53:05 17.8 C 12.29 g/m*3 17.8 C 0 km/h
1109 08-08-2008 04:05:05 18.1 C 12.05 g/m*3 18.1 C 0 km/h
1110 08-08-2008 04:17:35 18 C 11.83 g/m*3 18 C 0 km/h
1111 08-08-2008 04:29:35 17.9 C 11.76 g/m*3 17.9 C 0 km/h
1112 08-08-2008 04:41:02 17.9 C 11.6 g/m*3 17.9 C 0 km/h
1113 08-08-2008 04:53:02 17.7 C 11.47 g/m*3 17.7 C 0 km/h
1114 08-08-2008 05:05:02 17.7 C 11.47 g/m*3 17.7 C 0 km/h
1115 08-08-2008 05:17:02 17.7 C 11.47 g/m*3 17.7 C 0 km/h
1116 08-08-2008 05:29:01 17.6 C 11.55 g/m*3 17.6 C 0 km/h
1117 08-08-2008 05:41:01 17.7 C 11.47 g/m*3 17.7 C 0 km/h
1118 08-08-2008 05:53:02 17.7 C 11.32 g/m*3 17.7 C 0 km/h
1119 08-08-2008 06:05:02 17.6 C 11.25 g/m*3 17.6 C 0 km/h
1120 08-08-2008 06:17:02 17.7 C 11.16 g/m*3 17.7 C 0 km/h
1121 08-08-2008 06:29:02 17.8 C 11.23 g/m*3 17.8 C 0 km/h
1122 08-08-2008 06:41:02 17.7 C 11.47 g/m*3 17.7 C 0 km/h
1123 08-08-2008 06:53:33 17.1 C 11.65 g/m*3 17.1 C 0 km/h
1124 08-08-2008 07:05:33 17.2 C 11.72 g/m*3 17.2 C 0 km/h
1125 08-08-2008 07:17:33 17.7 C 11.62 g/m*3 17.7 C 0 km/h
Sensor: Nr:Datum:Temp:Abs-Feuchte:Windchill:Wind:
Aussen-T/F 1126 08-08-2008 07:29:33 18 C 11.21 g/m*3 18 C 0 km/h
1127 08-08-2008 07:41:33 17.7 C 11.16 g/m*3 17.7 C 0 km/h
1128 08-08-2008 07:53:33 16.6 C 11.72 g/m*3 16.6 C 0 km/h
1129 08-08-2008 08:17:34 16.3 C 11.93 g/m*3 16.3 C 0 km/h
1130 08-08-2008 08:29:34 16.6 C 12.29 g/m*3 16.6 C 0 km/h
1131 08-08-2008 08:41:34 16.9 C 12.37 g/m*3 16.9 C 0 km/h
1132 08-08-2008 09:05:34 17 C 11.72 g/m*3 17 C 0 km/h
1133 08-08-2008 09:17:34 17 C 11.87 g/m*3 17 C 0 km/h
1134 08-08-2008 09:29:34 16.8 C 11.87 g/m*3 16.8 C 0 km/h
1135 08-08-2008 09:41:03 17.2 C 12.15 g/m*3 17.2 C 0 km/h
1136 08-08-2008 09:53:03 17.5 C 12.08 g/m*3 17.5 C 0 km/h
1137 08-08-2008 10:05:03 17.7 C 11.92 g/m*3 17.7 C 0 km/h
1138 08-08-2008 10:17:02 17.7 C 11.62 g/m*3 17.7 C 0 km/h
1139 08-08-2008 10:29:02 17.8 C 11.84 g/m*3 17.8 C 0 km/h
1140 08-08-2008 10:41:02 18.2 C 11.81 g/m*3 18.2 C 0 km/h
1141 08-08-2008 10:53:02 18.5 C 11.55 g/m*3 18.5 C 0 km/h
1142 08-08-2008 11:05:02 18.8 C 11.76 g/m*3 18.8 C 0 km/h
1143 08-08-2008 11:17:03 19.4 C 11.85 g/m*3 19.4 C 0 km/h
1144 08-08-2008 11:29:03 20.3 C 11.78 g/m*3 20.3 C 0 km/h
1145 08-08-2008 11:41:02 20.9 C 11.47 g/m*3 20.9 C 0 km/h
1146 08-08-2008 11:53:02 21.9 C 11 g/m*3 21.9 C 0 km/h
1147 08-08-2008 12:05:02 21.7 C 10.68 g/m*3 21.7 C 0 km/h
1148 08-08-2008 12:17:03 21.4 C 10.87 g/m*3 21.4 C 0 km/h
1149 08-08-2008 12:29:03 21.7 C 11.06 g/m*3 21.7 C 0 km/h
1150 08-08-2008 12:41:02 16.9 C 10.64 g/m*3 16.9 C 0 km/h
Sensor: Nr:Datum:Temp:Abs-Feuchte:Windchill:Wind:
Aussen-T/F 1151 08-08-2008 12:53:02 16 C 11.44 g/m*3 16 C 0 km/h
1152 08-08-2008 13:05:02 17.8 C 13.2 g/m*3 17.8 C 0 km/h
1153 08-08-2008 13:17:02 19.2 C 13.85 g/m*3 19.2 C 0 km/h
1154 08-08-2008 13:29:02 20.9 C 13.11 g/m*3 20.9 C 0 km/h
1155 08-08-2008 13:41:02 21.8 C 12.28 g/m*3 21.8 C 0 km/h
1156 08-08-2008 13:53:01 20.8 C 13.04 g/m*3 20.8 C 0 km/h
1157 08-08-2008 14:05:02 20.4 C 13.27 g/m*3 20.4 C 0 km/h
1158 08-08-2008 14:17:02 20.3 C 14.07 g/m*3 20.3 C 0 km/h
1159 08-08-2008 14:29:02 21.1 C 13.82 g/m*3 21.1 C 0 km/h
1160 08-08-2008 14:41:02 22 C 13.78 g/m*3 22 C 0 km/h
1161 08-08-2008 14:53:02 22.7 C 12.73 g/m*3 22.7 C 0 km/h
1162 08-08-2008 15:05:02 21.7 C 12.02 g/m*3 21.7 C 0 km/h
1163 08-08-2008 15:17:02 19.2 C 11.71 g/m*3 19.2 C 0 km/h
1164 08-08-2008 15:29:03 20 C 12.96 g/m*3 20 C 0 km/h
1165 08-08-2008 15:41:03 21.9 C 11.77 g/m*3 21.9 C 0 km/h
1166 08-08-2008 15:53:03 22.1 C 11.52 g/m*3 22.1 C 0 km/h
1167 08-08-2008 16:05:03 21.1 C 9.58 g/m*3 21.1 C 0 km/h
1168 08-08-2008 16:17:02 21.1 C 9.95 g/m*3 21.1 C 0 km/h
1169 08-08-2008 16:29:02 22.7 C 9.7 g/m*3 22.7 C 0 km/h
1170 08-08-2008 16:41:02 22.1 C 9.17 g/m*3 22.1 C 0 km/h
1171 08-08-2008 16:53:01 21.6 C 9.48 g/m*3 21.6 C 0 km/h
1172 08-08-2008 17:05:01 21.8 C 9.21 g/m*3 21.8 C 0 km/h
1173 08-08-2008 17:17:01 21.8 C 9.4 g/m*3 21.8 C 0 km/h
1174 08-08-2008 17:29:01 21.4 C 9.19 g/m*3 21.4 C 0 km/h
1175 08-08-2008 17:41:01 19.7 C 9.85 g/m*3 19.7 C 0 km/h
Sensor: Nr:Datum:Temp:Abs-Feuchte:Windchill:Wind:
Aussen-T/F 1176 08-08-2008 17:53:02 18.7 C 11.05 g/m*3 18.7 C 0 km/h
1177 08-08-2008 18:05:02 18.9 C 11.66 g/m*3 18.9 C 0 km/h
1178 08-08-2008 18:17:02 19.5 C 11.24 g/m*3 19.5 C 0 km/h
1179 08-08-2008 18:29:02 19.5 C 10.74 g/m*3 19.5 C 0 km/h
1180 08-08-2008 18:41:02 19.4 C 10.51 g/m*3 19.4 C 0 km/h
1181 08-08-2008 18:53:28 19.3 C 10.28 g/m*3 19.3 C 0 km/h
1182 08-08-2008 19:05:02 19.4 C 10.34 g/m*3 19.4 C 0 km/h
1183 08-08-2008 19:17:03 19.4 C 10.34 g/m*3 19.4 C 0 km/h
1184 08-08-2008 19:29:03 19.3 C 10.28 g/m*3 19.3 C 0 km/h
1185 08-08-2008 19:41:03 19.3 C 10.12 g/m*3 19.3 C 0 km/h
1186 08-08-2008 19:53:02 19.3 C 10.12 g/m*3 19.3 C 0 km/h
1187 08-08-2008 20:05:03 19 C 10.27 g/m*3 19 C 0 km/h
1188 08-08-2008 20:17:02 17.8 C 11.08 g/m*3 17.8 C 0 km/h
1189 08-08-2008 20:29:02 17.5 C 11.18 g/m*3 17.5 C 0 km/h
1190 08-08-2008 20:41:03 16.8 C 11.58 g/m*3 16.8 C 0 km/h
1191 08-08-2008 20:53:02 16.5 C 11.8 g/m*3 16.5 C 0 km/h
1192 08-08-2008 21:05:02 16.4 C 12 g/m*3 16.4 C 0 km/h
1193 08-08-2008 21:17:02 16.3 C 12.07 g/m*3 16.3 C 0 km/h
1194 08-08-2008 21:29:01 16.3 C 12.21 g/m*3 16.3 C 0 km/h
1195 08-08-2008 21:41:01 16.5 C 12.22 g/m*3 16.5 C 0 km/h
1196 08-08-2008 21:54:01 16.6 C 12.15 g/m*3 16.6 C 0 km/h
1197 08-08-2008 22:06:01 16.7 C 12.08 g/m*3 16.7 C 0 km/h
1198 08-08-2008 22:18:01 16.7 C 11.94 g/m*3 16.7 C 0 km/h
1199 08-08-2008 22:30:01 16.8 C 11.87 g/m*3 16.8 C 0 km/h
1200 08-08-2008 22:42:01 16.4 C 11.58 g/m*3 16.4 C 0 km/h
Sensor: Nr:Datum:Temp:Abs-Feuchte:Windchill:Wind:
Aussen-T/F 1201 08-08-2008 22:54:01 16.1 C 11.93 g/m*3 16.1 C 0 km/h
1202 08-08-2008 23:06:01 16 C 11.99 g/m*3 16 C 0 km/h
1203 08-08-2008 23:18:01 16 C 12.13 g/m*3 16 C 0 km/h
1204 08-08-2008 23:30:02 16.1 C 12.34 g/m*3 16.1 C 0 km/h
1205 08-08-2008 23:42:02 16.2 C 12.41 g/m*3 16.2 C 0 km/h
1206 08-08-2008 23:54:02 16.1 C 12.2 g/m*3 16.1 C 0 km/h
1207 09-08-2008 00:06:02 16 C 11.99 g/m*3 16 C 0 km/h
1208 09-08-2008 00:18:02 16.1 C 12.06 g/m*3 16.1 C 0 km/h
1209 09-08-2008 00:30:02 16.2 C 12 g/m*3 16.2 C 0 km/h
1210 09-08-2008 00:42:02 16.2 C 11.86 g/m*3 16.2 C 0 km/h
1211 09-08-2008 00:54:02 16.1 C 11.65 g/m*3 16.1 C 0 km/h
1212 09-08-2008 01:06:02 15.9 C 11.51 g/m*3 15.9 C 0 km/h
1213 09-08-2008 01:18:02 15.7 C 11.37 g/m*3 15.7 C 0 km/h
1214 09-08-2008 01:30:02 15.4 C 11.3 g/m*3 15.4 C 0 km/h
1215 09-08-2008 01:42:02 15.1 C 11.09 g/m*3 15.1 C 0 km/h
1216 09-08-2008 01:54:02 14.9 C 11.22 g/m*3 14.9 C 0 km/h
1217 09-08-2008 02:06:02 14.9 C 11.22 g/m*3 14.9 C 0 km/h
1218 09-08-2008 02:18:02 14.7 C 11.08 g/m*3 14.7 C 0 km/h
1219 09-08-2008 02:30:02 14.5 C 10.94 g/m*3 14.5 C 0 km/h
1220 09-08-2008 02:42:02 14.5 C 10.94 g/m*3 14.5 C 0 km/h
1221 09-08-2008 02:54:02 14.4 C 10.88 g/m*3 14.4 C 0 km/h
1222 09-08-2008 03:06:02 14.4 C 10.88 g/m*3 14.4 C 0 km/h
1223 09-08-2008 03:18:03 14.5 C 10.7 g/m*3 14.5 C 0 km/h
1224 09-08-2008 03:30:03 14.5 C 10.32 g/m*3 14.5 C 0 km/h
1225 09-08-2008 03:42:03 14.4 C 10.26 g/m*3 14.4 C 0 km/h
Sensor: Nr:Datum:Temp:Abs-Feuchte:Windchill:Wind:
Aussen-T/F 1226 09-08-2008 03:54:03 14.4 C 10.26 g/m*3 14.4 C 0 km/h
1227 09-08-2008 04:06:03 14.5 C 10.45 g/m*3 14.5 C 0 km/h
1228 09-08-2008 04:18:03 14.5 C 10.45 g/m*3 14.5 C 0 km/h
1229 09-08-2008 04:30:03 14.5 C 10.57 g/m*3 14.5 C 0 km/h
1230 09-08-2008 04:42:03 14.6 C 10.64 g/m*3 14.6 C 0 km/h
1231 09-08-2008 04:54:03 14.6 C 10.64 g/m*3 14.6 C 0 km/h
1232 09-08-2008 05:06:03 14.7 C 10.58 g/m*3 14.7 C 0 km/h
1233 09-08-2008 05:18:03 14.6 C 10.51 g/m*3 14.6 C 0 km/h
1234 09-08-2008 05:30:03 14.6 C 10.51 g/m*3 14.6 C 0 km/h
1235 09-08-2008 05:42:03 14.6 C 10.39 g/m*3 14.6 C 0 km/h
1236 09-08-2008 05:54:03 14.7 C 10.2 g/m*3 14.7 C 0 km/h
1237 09-08-2008 06:06:03 14.7 C 10.07 g/m*3 14.7 C 0 km/h
1238 09-08-2008 06:18:03 14.9 C 9.81 g/m*3 14.9 C 0 km/h
1239 09-08-2008 06:30:03 14.9 C 9.69 g/m*3 14.9 C 0 km/h
1240 09-08-2008 06:42:03 14.9 C 9.69 g/m*3 14.9 C 0 km/h
1241 09-08-2008 06:54:03 15 C 9.87 g/m*3 15 C 0 km/h
1242 09-08-2008 07:06:03 15 C 9.75 g/m*3 15 C 0 km/h
1243 09-08-2008 07:18:04 14.9 C 9.43 g/m*3 14.9 C 0 km/h
1244 09-08-2008 07:30:04 14.8 C 9.37 g/m*3 14.8 C 0 km/h
1245 09-08-2008 07:42:04 15 C 9.36 g/m*3 15 C 0 km/h
1246 09-08-2008 07:54:04 15.1 C 9.29 g/m*3 15.1 C 0 km/h
1247 09-08-2008 08:06:02 14.7 C 9.19 g/m*3 14.7 C 0 km/h
1248 09-08-2008 08:18:02 14.7 C 9.44 g/m*3 14.7 C 0 km/h
1249 09-08-2008 08:30:02 15.1 C 9.42 g/m*3 15.1 C 0 km/h
1250 09-08-2008 08:42:01 15.7 C 9.1 g/m*3 15.7 C 0 km/h
Sensor: Nr:Datum:Temp:Abs-Feuchte:Windchill:Wind:
Aussen-T/F 1251 09-08-2008 08:54:02 16.2 C 9.38 g/m*3 16.2 C 0 km/h
1252 09-08-2008 09:06:02 16.3 C 9.02 g/m*3 16.3 C 0 km/h
1253 09-08-2008 09:18:02 16.3 C 9.43 g/m*3 16.3 C 0 km/h
1254 09-08-2008 09:30:02 16.8 C 9.72 g/m*3 16.8 C 0 km/h
1255 09-08-2008 09:42:02 17.1 C 9.17 g/m*3 17.1 C 0 km/h
1256 09-08-2008 09:54:02 16.6 C 9.04 g/m*3 16.6 C 0 km/h
1257 09-08-2008 10:06:02 17.6 C 8.85 g/m*3 17.6 C 0 km/h
1258 09-08-2008 10:18:01 17.9 C 8.09 g/m*3 17.9 C 0 km/h
1259 09-08-2008 10:30:01 18.1 C 7.73 g/m*3 18.1 C 0 km/h
1260 09-08-2008 10:42:02 18.5 C 7.91 g/m*3 18.5 C 0 km/h
1261 09-08-2008 10:54:02 18.6 C 6.84 g/m*3 18.6 C 0 km/h
1262 09-08-2008 11:06:02 19 C 7.66 g/m*3 19 C 0 km/h
1263 09-08-2008 11:18:02 20.2 C 6.64 g/m*3 20.2 C 0 km/h
1264 09-08-2008 11:30:02 19.9 C 7.22 g/m*3 19.9 C 0 km/h
1265 09-08-2008 11:42:02 20.4 C 6.72 g/m*3 20.4 C 0 km/h
1266 09-08-2008 11:54:02 20.7 C 6.48 g/m*3 20.7 C 0 km/h
1267 09-08-2008 12:06:01 20.9 C 6.19 g/m*3 20.9 C 0 km/h
1268 09-08-2008 12:18:02 21.9 C 6.18 g/m*3 21.9 C 0 km/h
1269 09-08-2008 12:30:02 22.5 C 6.19 g/m*3 22.5 C 0 km/h
1270 09-08-2008 12:42:01 21.5 C 6.03 g/m*3 21.5 C 0 km/h
1271 09-08-2008 12:54:02 22.3 C 5.73 g/m*3 22.3 C 0 km/h
1272 09-08-2008 13:06:01 22.4 C 5.56 g/m*3 22.4 C 0 km/h
1273 09-08-2008 13:18:02 23.1 C 5.37 g/m*3 23.1 C 0 km/h
1274 09-08-2008 13:30:02 23.5 C 5.29 g/m*3 23.5 C 0 km/h
1275 09-08-2008 13:42:01 23.5 C 5.5 g/m*3 23.5 C 0 km/h
Sensor: Nr:Datum:Temp:Abs-Feuchte:Windchill:Wind:
Aussen-T/F 1276 09-08-2008 13:54:03 22.9 C 5.11 g/m*3 22.9 C 0 km/h
1277 09-08-2008 14:06:02 23.2 C 5.61 g/m*3 23.2 C 0 km/h
1278 09-08-2008 14:18:03 23 C 5.34 g/m*3 23 C 0 km/h
1279 09-08-2008 14:30:03 23.2 C 5.2 g/m*3 23.2 C 0 km/h
1280 09-08-2008 14:42:02 24.4 C 5.56 g/m*3 24.4 C 0 km/h
1281 09-08-2008 14:54:02 25.2 C 5.12 g/m*3 25.2 C 0 km/h
1282 09-08-2008 15:06:03 24.3 C 5.53 g/m*3 24.3 C 0 km/h
1283 09-08-2008 15:18:03 24.9 C 5.72 g/m*3 24.9 C 0 km/h
1284 09-08-2008 15:30:03 25.6 C 5.48 g/m*3 25.6 C 0 km/h
1285 09-08-2008 15:42:03 26.1 C 5.63 g/m*3 26.1 C 0 km/h
1286 09-08-2008 15:54:02 26.1 C 5.39 g/m*3 26.1 C 0 km/h
1287 09-08-2008 16:06:03 25.9 C 5.33 g/m*3 25.9 C 0 km/h
1288 09-08-2008 16:18:02 25.9 C 6.05 g/m*3 25.9 C 0 km/h
1289 09-08-2008 16:30:02 25.4 C 5.65 g/m*3 25.4 C 0 km/h
1290 09-08-2008 16:42:03 24.8 C 5.92 g/m*3 24.8 C 0 km/h
1291 09-08-2008 16:54:03 24.8 C 5.92 g/m*3 24.8 C 0 km/h
1292 09-08-2008 17:06:02 26.3 C 5.94 g/m*3 26.3 C 0 km/h
1293 09-08-2008 17:18:02 26.4 C 5.48 g/m*3 26.4 C 0 km/h
1294 09-08-2008 17:30:02 25.4 C 5.89 g/m*3 25.4 C 0 km/h
1295 09-08-2008 17:42:02 24.9 C 5.95 g/m*3 24.9 C 0 km/h
1296 09-08-2008 17:54:01 26 C 6.09 g/m*3 26 C 0 km/h
1297 09-08-2008 18:06:02 26.2 C 6.15 g/m*3 26.2 C 0 km/h
1298 09-08-2008 18:18:01 25.2 C 6.05 g/m*3 25.2 C 0 km/h
1299 09-08-2008 18:30:01 25 C 6.22 g/m*3 25 C 0 km/h
1300 09-08-2008 18:42:02 25.9 C 6.29 g/m*3 25.9 C 0 km/h
Sensor: Nr:Datum:Temp:Abs-Feuchte:Windchill:Wind:
Aussen-T/F 1301 09-08-2008 18:54:01 25.8 C 6.74 g/m*3 25.8 C 0 km/h
1302 09-08-2008 19:06:02 25.3 C 6.79 g/m*3 25.3 C 0 km/h
1303 09-08-2008 19:18:02 24.9 C 7.1 g/m*3 24.9 C 0 km/h
1304 09-08-2008 19:30:02 23.9 C 7.14 g/m*3 23.9 C 0 km/h
1305 09-08-2008 19:42:01 23.8 C 7.1 g/m*3 23.8 C 0 km/h
1306 09-08-2008 19:54:01 23.3 C 7.32 g/m*3 23.3 C 0 km/h
1307 09-08-2008 20:06:02 22.9 C 7.56 g/m*3 22.9 C 0 km/h
1308 09-08-2008 20:18:01 22.3 C 7.7 g/m*3 22.3 C 0 km/h
1309 09-08-2008 20:30:01 21.6 C 7.78 g/m*3 21.6 C 0 km/h
1310 09-08-2008 20:42:02 21 C 7.69 g/m*3 21 C 0 km/h
1311 09-08-2008 20:54:02 20.7 C 8.1 g/m*3 20.7 C 0 km/h
1312 09-08-2008 21:06:02 20 C 7.95 g/m*3 20 C 0 km/h
1313 09-08-2008 21:18:02 19.9 C 8.25 g/m*3 19.9 C 0 km/h
1314 09-08-2008 21:30:02 19.8 C 8.2 g/m*3 19.8 C 0 km/h
1315 09-08-2008 21:42:02 19.6 C 8.27 g/m*3 19.6 C 0 km/h
1316 09-08-2008 21:54:02 19.5 C 8.39 g/m*3 19.5 C 0 km/h
1317 09-08-2008 22:06:01 19.3 C 8.63 g/m*3 19.3 C 0 km/h
1318 09-08-2008 22:18:02 19 C 8.8 g/m*3 19 C 0 km/h
1319 09-08-2008 22:30:02 19 C 8.8 g/m*3 19 C 0 km/h
1320 09-08-2008 22:42:01 18.9 C 9.23 g/m*3 18.9 C 0 km/h
1321 09-08-2008 22:54:02 18.9 C 9.23 g/m*3 18.9 C 0 km/h
1322 09-08-2008 23:06:01 18.8 C 9.34 g/m*3 18.8 C 0 km/h
1323 09-08-2008 23:18:02 18.7 C 9.13 g/m*3 18.7 C 0 km/h
1324 09-08-2008 23:30:02 18.4 C 9.28 g/m*3 18.4 C 0 km/h
1325 09-08-2008 23:43:02 18.2 C 9.33 g/m*3 18.2 C 0 km/h
Sensor: Nr:Datum:Temp:Abs-Feuchte:Windchill:Wind:
Aussen-T/F 1326 09-08-2008 23:55:02 18 C 9.37 g/m*3 18 C 0 km/h
1327 10-08-2008 00:07:02 17.8 C 9.56 g/m*3 17.8 C 0 km/h
1328 10-08-2008 00:19:02 17.7 C 9.51 g/m*3 17.7 C 0 km/h
1329 10-08-2008 00:31:02 17.7 C 9.51 g/m*3 17.7 C 0 km/h
1330 10-08-2008 00:43:02 17.9 C 9.77 g/m*3 17.9 C 0 km/h
1331 10-08-2008 00:55:02 17.9 C 9.77 g/m*3 17.9 C 0 km/h
1332 10-08-2008 01:07:02 18 C 9.68 g/m*3 18 C 0 km/h
1333 10-08-2008 01:19:02 18.1 C 9.73 g/m*3 18.1 C 0 km/h
1334 10-08-2008 01:31:02 17.9 C 9.77 g/m*3 17.9 C 0 km/h
1335 10-08-2008 01:43:02 17.9 C 9.92 g/m*3 17.9 C 0 km/h
1336 10-08-2008 01:55:02 18 C 9.83 g/m*3 18 C 0 km/h
1337 10-08-2008 02:07:02 17.9 C 10.08 g/m*3 17.9 C 0 km/h
1338 10-08-2008 02:19:02 17.7 C 10.11 g/m*3 17.7 C 0 km/h
1339 10-08-2008 02:31:02 18 C 10.14 g/m*3 18 C 0 km/h
1340 10-08-2008 02:43:02 18.1 C 9.73 g/m*3 18.1 C 0 km/h
1341 10-08-2008 02:55:02 18.3 C 9.85 g/m*3 18.3 C 0 km/h
1342 10-08-2008 03:07:02 18.3 C 9.69 g/m*3 18.3 C 0 km/h
1343 10-08-2008 03:19:03 18.2 C 9.79 g/m*3 18.2 C 0 km/h
1344 10-08-2008 03:31:03 18.2 C 9.79 g/m*3 18.2 C 0 km/h
1345 10-08-2008 03:43:03 18.2 C 9.64 g/m*3 18.2 C 0 km/h
1346 10-08-2008 03:55:03 17.7 C 10.11 g/m*3 17.7 C 0 km/h
1347 10-08-2008 04:07:03 17.6 C 10.2 g/m*3 17.6 C 0 km/h
1348 10-08-2008 04:19:03 18 C 9.68 g/m*3 18 C 0 km/h
1349 10-08-2008 04:31:03 17.9 C 9.77 g/m*3 17.9 C 0 km/h
1350 10-08-2008 04:43:03 18 C 9.68 g/m*3 18 C 0 km/h
Sensor: Nr:Datum:Temp:Abs-Feuchte:Windchill:Wind:
Aussen-T/F 1351 10-08-2008 04:55:03 18 C 9.68 g/m*3 18 C 0 km/h
1352 10-08-2008 05:07:03 18 C 9.68 g/m*3 18 C 0 km/h
1353 10-08-2008 05:19:03 17.9 C 9.47 g/m*3 17.9 C 0 km/h
1354 10-08-2008 05:31:03 17.9 C 9.47 g/m*3 17.9 C 0 km/h
1355 10-08-2008 05:43:03 17.9 C 9.47 g/m*3 17.9 C 0 km/h
1356 10-08-2008 05:55:03 18.2 C 9.33 g/m*3 18.2 C 0 km/h
1357 10-08-2008 06:07:03 18.2 C 9.33 g/m*3 18.2 C 0 km/h
1358 10-08-2008 06:19:03 18.2 C 9.17 g/m*3 18.2 C 0 km/h
1359 10-08-2008 06:31:03 18.1 C 9.27 g/m*3 18.1 C 0 km/h
1360 10-08-2008 06:43:03 17.5 C 9.99 g/m*3 17.5 C 0 km/h
1361 10-08-2008 06:55:03 17.7 C 10.26 g/m*3 17.7 C 0 km/h
1362 10-08-2008 07:07:04 17.9 C 10.08 g/m*3 17.9 C 0 km/h
1363 10-08-2008 07:19:04 18.1 C 9.89 g/m*3 18.1 C 0 km/h
1364 10-08-2008 07:31:04 18.1 C 9.89 g/m*3 18.1 C 0 km/h
1365 10-08-2008 07:43:04 18.4 C 9.75 g/m*3 18.4 C 0 km/h
1366 10-08-2008 07:55:04 18.8 C 9.66 g/m*3 18.8 C 0 km/h
1367 10-08-2008 08:07:04 19.2 C 9.07 g/m*3 19.2 C 0 km/h
1368 10-08-2008 08:19:04 19.4 C 9.01 g/m*3 19.4 C 0 km/h
1369 10-08-2008 08:31:04 19.5 C 9.06 g/m*3 19.5 C 0 km/h
1370 10-08-2008 08:43:04 19.7 C 9 g/m*3 19.7 C 0 km/h
1371 10-08-2008 08:55:04 19.9 C 8.93 g/m*3 19.9 C 0 km/h
1372 10-08-2008 09:07:02 19.9 C 9.11 g/m*3 19.9 C 0 km/h
1373 10-08-2008 09:19:02 20.2 C 9.09 g/m*3 20.2 C 0 km/h
1374 10-08-2008 09:31:02 20.2 C 8.92 g/m*3 20.2 C 0 km/h
1375 10-08-2008 09:43:02 20.3 C 8.97 g/m*3 20.3 C 0 km/h
Sensor: Nr:Datum:Temp:Abs-Feuchte:Windchill:Wind:
Aussen-T/F 1376 10-08-2008 09:55:02 20.1 C 9.04 g/m*3 20.1 C 0 km/h
1377 10-08-2008 10:07:02 20 C 9.16 g/m*3 20 C 0 km/h
1378 10-08-2008 10:19:02 19.9 C 9.79 g/m*3 19.9 C 0 km/h
1379 10-08-2008 10:31:02 19.5 C 9.9 g/m*3 19.5 C 0 km/h
1380 10-08-2008 10:43:02 19.6 C 10.13 g/m*3 19.6 C 0 km/h
1381 10-08-2008 10:55:02 20 C 10.02 g/m*3 20 C 0 km/h
1382 10-08-2008 11:07:02 20 C 9.68 g/m*3 20 C 0 km/h
1383 10-08-2008 11:19:02 19 C 10.27 g/m*3 19 C 0 km/h
1384 10-08-2008 11:31:02 18.8 C 10.79 g/m*3 18.8 C 0 km/h
1385 10-08-2008 11:43:02 18.5 C 10.44 g/m*3 18.5 C 0 km/h
1386 10-08-2008 11:58:02 19.3 C 10.12 g/m*3 19.3 C 0 km/h
1387 10-08-2008 12:10:01 19.6 C 9.96 g/m*3 19.6 C 0 km/h
1388 10-08-2008 12:22:02 20 C 9.68 g/m*3 20 C 0 km/h
1389 10-08-2008 12:34:01 20.7 C 9.9 g/m*3 20.7 C 0 km/h
1390 10-08-2008 12:46:02 20.9 C 9.29 g/m*3 20.9 C 0 km/h
1391 10-08-2008 12:58:02 21.2 C 9.27 g/m*3 21.2 C 0 km/h
1392 10-08-2008 13:10:02 21.5 C 8.86 g/m*3 21.5 C 0 km/h
1393 10-08-2008 13:22:02 21.1 C 9.03 g/m*3 21.1 C 0 km/h
1394 10-08-2008 13:34:02 21.5 C 9.05 g/m*3 21.5 C 0 km/h
1395 10-08-2008 13:46:02 22.3 C 8.49 g/m*3 22.3 C 0 km/h
1396 10-08-2008 13:58:02 22.8 C 8.33 g/m*3 22.8 C 0 km/h
1397 10-08-2008 14:10:02 22.6 C 8.24 g/m*3 22.6 C 0 km/h
1398 10-08-2008 14:22:02 22.4 C 8.14 g/m*3 22.4 C 0 km/h
1399 10-08-2008 14:34:02 21.6 C 8.91 g/m*3 21.6 C 0 km/h
1400 10-08-2008 14:46:02 20.7 C 9.54 g/m*3 20.7 C 0 km/h
Sensor: Nr:Datum:Temp:Abs-Feuchte:Windchill:Wind:
Aussen-T/F 1401 10-08-2008 14:58:02 21.5 C 10.18 g/m*3 21.5 C 0 km/h
1402 10-08-2008 15:10:01 22.6 C 9.24 g/m*3 22.6 C 0 km/h
1403 10-08-2008 15:22:02 22.7 C 9.5 g/m*3 22.7 C 0 km/h
1404 10-08-2008 15:34:01 22.6 C 9.84 g/m*3 22.6 C 0 km/h
1405 10-08-2008 15:46:02 22.2 C 8.83 g/m*3 22.2 C 0 km/h
1406 10-08-2008 15:58:02 22.6 C 8.24 g/m*3 22.6 C 0 km/h
1407 10-08-2008 16:10:02 23.2 C 8.11 g/m*3 23.2 C 0 km/h
1408 10-08-2008 16:22:02 24.5 C 8.06 g/m*3 24.5 C 0 km/h
1409 10-08-2008 16:34:02 24 C 7.61 g/m*3 24 C 0 km/h
1410 10-08-2008 16:46:02 23.8 C 7.74 g/m*3 23.8 C 0 km/h
1411 10-08-2008 16:58:02 24 C 7.4 g/m*3 24 C 0 km/h
1412 10-08-2008 17:10:02 23.8 C 7.74 g/m*3 23.8 C 0 km/h
1413 10-08-2008 17:22:02 23.9 C 7.79 g/m*3 23.9 C 0 km/h
1414 10-08-2008 17:34:01 24 C 7.4 g/m*3 24 C 0 km/h
1415 10-08-2008 17:46:02 23.8 C 7.53 g/m*3 23.8 C 0 km/h
1416 10-08-2008 17:58:02 23.7 C 7.91 g/m*3 23.7 C 0 km/h
1417 10-08-2008 18:10:02 23.5 C 7.61 g/m*3 23.5 C 0 km/h
1418 10-08-2008 18:22:01 23.7 C 7.91 g/m*3 23.7 C 0 km/h
1419 10-08-2008 18:34:03 23.9 C 7.79 g/m*3 23.9 C 0 km/h
1420 10-08-2008 18:46:03 23.6 C 7.87 g/m*3 23.6 C 0 km/h
1421 10-08-2008 18:58:03 23.3 C 8.36 g/m*3 23.3 C 0 km/h
1422 10-08-2008 19:10:02 23.3 C 8.36 g/m*3 23.3 C 0 km/h
1423 10-08-2008 19:22:03 22.9 C 8.58 g/m*3 22.9 C 0 km/h
1424 10-08-2008 19:34:02 22.5 C 8.39 g/m*3 22.5 C 0 km/h
1425 10-08-2008 19:46:02 22.2 C 8.44 g/m*3 22.2 C 0 km/h
Sensor: Nr:Datum:Temp:Abs-Feuchte:Windchill:Wind:
Aussen-T/F 1426 10-08-2008 19:58:02 21.9 C 9.07 g/m*3 21.9 C 0 km/h
1427 10-08-2008 20:10:02 21.7 C 8.97 g/m*3 21.7 C 0 km/h
1428 10-08-2008 20:22:02 21.3 C 9.13 g/m*3 21.3 C 0 km/h
1429 10-08-2008 20:34:02 21 C 8.98 g/m*3 21 C 0 km/h
1430 10-08-2008 20:46:02 21 C 9.16 g/m*3 21 C 0 km/h
1431 10-08-2008 20:58:02 20.8 C 9.42 g/m*3 20.8 C 0 km/h
1432 10-08-2008 21:10:03 20.6 C 9.31 g/m*3 20.6 C 0 km/h
1433 10-08-2008 21:22:02 20.6 C 9.31 g/m*3 20.6 C 0 km/h
1434 10-08-2008 21:34:03 20.4 C 9.55 g/m*3 20.4 C 0 km/h
1435 10-08-2008 21:46:02 20.2 C 9.44 g/m*3 20.2 C 0 km/h
1436 10-08-2008 21:58:03 20 C 9.51 g/m*3 20 C 0 km/h
1437 10-08-2008 22:10:01 19.6 C 9.79 g/m*3 19.6 C 0 km/h
1438 10-08-2008 22:23:02 19.4 C 9.84 g/m*3 19.4 C 0 km/h
1439 10-08-2008 22:35:02 19.1 C 9.84 g/m*3 19.1 C 0 km/h
1440 10-08-2008 22:47:02 19.1 C 10 g/m*3 19.1 C 0 km/h
1441 10-08-2008 22:59:02 19 C 9.78 g/m*3 19 C 0 km/h
1442 10-08-2008 23:11:02 18.8 C 9.82 g/m*3 18.8 C 0 km/h
1443 10-08-2008 23:23:02 18.7 C 9.77 g/m*3 18.7 C 0 km/h
1444 10-08-2008 23:35:03 18.5 C 9.65 g/m*3 18.5 C 0 km/h
1445 10-08-2008 23:47:03 18.4 C 9.44 g/m*3 18.4 C 0 km/h
1446 10-08-2008 23:59:03 18.3 C 9.07 g/m*3 18.3 C 0 km/h
1447 11-08-2008 00:11:03 18.1 C 9.12 g/m*3 18.1 C 0 km/h
1448 11-08-2008 00:23:03 18.1 C 9.27 g/m*3 18.1 C 0 km/h
1449 11-08-2008 00:35:03 18.1 C 9.27 g/m*3 18.1 C 0 km/h
1450 11-08-2008 00:47:03 18.1 C 9.27 g/m*3 18.1 C 0 km/h
Sensor: Nr:Datum:Temp:Abs-Feuchte:Windchill:Wind:
Aussen-T/F 1451 11-08-2008 00:59:03 18.2 C 9.33 g/m*3 18.2 C 0 km/h
1452 11-08-2008 01:11:03 18.4 C 9.28 g/m*3 18.4 C 0 km/h
1453 11-08-2008 01:23:03 18.6 C 9.39 g/m*3 18.6 C 0 km/h
1454 11-08-2008 01:35:03 18.7 C 9.45 g/m*3 18.7 C 0 km/h
1455 11-08-2008 01:47:03 18.5 C 9.65 g/m*3 18.5 C 0 km/h
1456 11-08-2008 01:59:03 18.3 C 9.69 g/m*3 18.3 C 0 km/h
1457 11-08-2008 02:11:03 18 C 9.68 g/m*3 18 C 0 km/h
1458 11-08-2008 02:23:03 17.6 C 9.9 g/m*3 17.6 C 0 km/h
1459 11-08-2008 02:35:03 17.3 C 10.02 g/m*3 17.3 C 0 km/h
1460 11-08-2008 02:47:03 17.4 C 10.23 g/m*3 17.4 C 0 km/h
1461 11-08-2008 02:59:03 17.5 C 10.44 g/m*3 17.5 C 0 km/h
1462 11-08-2008 03:11:03 17.5 C 10.59 g/m*3 17.5 C 0 km/h
1463 11-08-2008 03:23:03 17.5 C 10.59 g/m*3 17.5 C 0 km/h
1464 11-08-2008 03:35:04 17.7 C 10.56 g/m*3 17.7 C 0 km/h
1465 11-08-2008 03:47:04 17.7 C 10.56 g/m*3 17.7 C 0 km/h
1466 11-08-2008 03:59:04 17.5 C 10.44 g/m*3 17.5 C 0 km/h
1467 11-08-2008 04:11:04 17.4 C 10.37 g/m*3 17.4 C 0 km/h
1468 11-08-2008 04:23:04 17.1 C 10.19 g/m*3 17.1 C 0 km/h
1469 11-08-2008 04:35:04 16.8 C 10.15 g/m*3 16.8 C 0 km/h
1470 11-08-2008 04:47:04 16.6 C 10.03 g/m*3 16.6 C 0 km/h
1471 11-08-2008 04:59:04 16 C 9.67 g/m*3 16 C 0 km/h
1472 11-08-2008 05:11:04 15.7 C 9.63 g/m*3 15.7 C 0 km/h
1473 11-08-2008 05:23:04 15.6 C 9.71 g/m*3 15.6 C 0 km/h
1474 11-08-2008 05:35:04 15.9 C 9.62 g/m*3 15.9 C 0 km/h
1475 11-08-2008 05:47:04 15.8 C 9.69 g/m*3 15.8 C 0 km/h
Sensor: Nr:Datum:Temp:Abs-Feuchte:Windchill:Wind:
Aussen-T/F 1476 11-08-2008 05:59:04 15.4 C 9.59 g/m*3 15.4 C 0 km/h
1477 11-08-2008 06:11:02 15.1 C 9.68 g/m*3 15.1 C 0 km/h
1478 11-08-2008 06:23:02 14.8 C 9.88 g/m*3 14.8 C 0 km/h
1479 11-08-2008 06:35:02 15 C 10.13 g/m*3 15 C 0 km/h
1480 11-08-2008 06:47:02 15.2 C 10.12 g/m*3 15.2 C 0 km/h
1481 11-08-2008 06:59:02 15 C 10 g/m*3 15 C 0 km/h
1482 11-08-2008 07:11:02 14.9 C 10.2 g/m*3 14.9 C 0 km/h
1483 11-08-2008 07:23:02 14.9 C 10.2 g/m*3 14.9 C 0 km/h
1484 11-08-2008 07:35:02 15 C 10.26 g/m*3 15 C 0 km/h
1485 11-08-2008 07:47:02 15.4 C 10.51 g/m*3 15.4 C 0 km/h
1486 11-08-2008 07:59:02 15.6 C 10.37 g/m*3 15.6 C 0 km/h
1487 11-08-2008 08:11:01 15.5 C 10.31 g/m*3 15.5 C 0 km/h
1488 11-08-2008 08:23:02 15.9 C 10.56 g/m*3 15.9 C 0 km/h
1489 11-08-2008 08:35:01 16.3 C 10.41 g/m*3 16.3 C 0 km/h
1490 11-08-2008 08:47:02 16.7 C 10.37 g/m*3 16.7 C 0 km/h
1491 11-08-2008 08:59:02 17.5 C 10.14 g/m*3 17.5 C 0 km/h
1492 11-08-2008 09:11:01 18.2 C 10.41 g/m*3 18.2 C 0 km/h
1493 11-08-2008 09:23:02 19.1 C 10.16 g/m*3 19.1 C 0 km/h
1494 11-08-2008 09:35:02 19.6 C 10.13 g/m*3 19.6 C 0 km/h
1495 11-08-2008 09:47:02 20.2 C 9.97 g/m*3 20.2 C 0 km/h
1496 11-08-2008 09:59:03 20.8 C 9.78 g/m*3 20.8 C 0 km/h
1497 11-08-2008 10:11:02 20.9 C 9.47 g/m*3 20.9 C 0 km/h
1498 11-08-2008 10:23:02 21 C 9.53 g/m*3 21 C 0 km/h
1499 11-08-2008 10:35:01 21.3 C 9.51 g/m*3 21.3 C 0 km/h
1500 11-08-2008 10:47:02 21.6 C 8.72 g/m*3 21.6 C 0 km/h
Sensor: Nr:Datum:Temp:Abs-Feuchte:Windchill:Wind:
Aussen-T/F 1501 11-08-2008 10:59:02 21.9 C 8.1 g/m*3 21.9 C 0 km/h
1502 11-08-2008 11:11:01 22.4 C 8.14 g/m*3 22.4 C 0 km/h
1503 11-08-2008 11:23:02 22.5 C 7.99 g/m*3 22.5 C 0 km/h
1504 11-08-2008 11:35:01 22.1 C 8.2 g/m*3 22.1 C 0 km/h
1505 11-08-2008 11:47:01 22.6 C 8.84 g/m*3 22.6 C 0 km/h
1506 11-08-2008 11:59:01 22 C 8.73 g/m*3 22 C 0 km/h
1507 11-08-2008 12:11:02 22.7 C 8.49 g/m*3 22.7 C 0 km/h
1508 11-08-2008 12:23:01 23.4 C 8.41 g/m*3 23.4 C 0 km/h
1509 11-08-2008 12:35:02 23.7 C 7.91 g/m*3 23.7 C 0 km/h
1510 11-08-2008 12:47:02 24.2 C 7.26 g/m*3 24.2 C 0 km/h
1511 11-08-2008 12:59:02 24.1 C 7 g/m*3 24.1 C 0 km/h
1512 11-08-2008 13:11:03 25.2 C 7.22 g/m*3 25.2 C 0 km/h
1513 11-08-2008 13:23:02 25.9 C 6.78 g/m*3 25.9 C 0 km/h
1514 11-08-2008 13:35:02 26 C 6.33 g/m*3 26 C 0 km/h
1515 11-08-2008 13:47:02 25.8 C 6.5 g/m*3 25.8 C 0 km/h
1516 11-08-2008 13:59:02 26.4 C 6.22 g/m*3 26.4 C 0 km/h
1517 11-08-2008 14:11:02 26.2 C 5.91 g/m*3 26.2 C 0 km/h
1518 11-08-2008 14:23:02 26.5 C 6.26 g/m*3 26.5 C 0 km/h
1519 11-08-2008 14:35:02 27.1 C 6.47 g/m*3 27.1 C 0 km/h
1520 11-08-2008 14:47:01 27.2 C 6.25 g/m*3 27.2 C 0 km/h
1521 11-08-2008 14:59:01 27 C 5.66 g/m*3 27 C 0 km/h
1522 11-08-2008 15:11:02 27.8 C 6.72 g/m*3 27.8 C 0 km/h
1523 11-08-2008 15:23:01 27.4 C 5.26 g/m*3 27.4 C 0 km/h
1524 11-08-2008 15:35:02 26.7 C 5.32 g/m*3 26.7 C 0 km/h
1525 11-08-2008 15:47:02 26.7 C 5.82 g/m*3 26.7 C 0 km/h
Sensor: Nr:Datum:Temp:Abs-Feuchte:Windchill:Wind:
Aussen-T/F 1526 11-08-2008 15:59:02 26.8 C 5.85 g/m*3 26.8 C 0 km/h
1527 11-08-2008 16:11:01 26.8 C 5.85 g/m*3 26.8 C 0 km/h
1528 11-08-2008 16:23:02 26.2 C 5.91 g/m*3 26.2 C 0 km/h
1529 11-08-2008 16:35:02 26.2 C 6.15 g/m*3 26.2 C 0 km/h
1530 11-08-2008 16:47:02 25.7 C 6.46 g/m*3 25.7 C 0 km/h
1531 11-08-2008 16:59:02 25 C 6.22 g/m*3 25 C 0 km/h
1532 11-08-2008 17:11:01 25 C 6.22 g/m*3 25 C 0 km/h
1533 11-08-2008 17:23:02 24.5 C 6.49 g/m*3 24.5 C 0 km/h
1534 11-08-2008 17:35:01 24.3 C 6.86 g/m*3 24.3 C 0 km/h
1535 11-08-2008 17:47:02 23.9 C 6.71 g/m*3 23.9 C 0 km/h
1536 11-08-2008 17:59:03 23.9 C 6.49 g/m*3 23.9 C 0 km/h
1537 11-08-2008 18:11:02 23.9 C 6.92 g/m*3 23.9 C 0 km/h
1538 11-08-2008 18:23:02 22.9 C 7.97 g/m*3 22.9 C 0 km/h
1539 11-08-2008 18:35:02 23.3 C 7.95 g/m*3 23.3 C 0 km/h
1540 11-08-2008 18:47:02 23.2 C 8.11 g/m*3 23.2 C 0 km/h
1541 11-08-2008 18:59:02 22.6 C 8.64 g/m*3 22.6 C 0 km/h
1542 11-08-2008 19:11:02 22.7 C 8.28 g/m*3 22.7 C 0 km/h
1543 11-08-2008 19:23:02 22.9 C 8.79 g/m*3 22.9 C 0 km/h
1544 11-08-2008 19:35:01 22.9 C 8.79 g/m*3 22.9 C 0 km/h
1545 11-08-2008 19:47:02 22.5 C 9.19 g/m*3 22.5 C 0 km/h
1546 11-08-2008 19:59:02 22.1 C 8.98 g/m*3 22.1 C 0 km/h
1547 11-08-2008 20:11:02 21.9 C 9.46 g/m*3 21.9 C 0 km/h
1548 11-08-2008 20:23:01 21.5 C 9.43 g/m*3 21.5 C 0 km/h
1549 11-08-2008 20:35:02 21.2 C 9.45 g/m*3 21.2 C 0 km/h
1550 11-08-2008 20:47:02 21.1 C 9.4 g/m*3 21.1 C 0 km/h
Sensor: Nr:Datum:Temp:Abs-Feuchte:Windchill:Wind:
Aussen-T/F 1551 11-08-2008 20:59:02 20.6 C 9.84 g/m*3 20.6 C 0 km/h
1552 11-08-2008 21:11:02 20.1 C 9.91 g/m*3 20.1 C 0 km/h
1553 11-08-2008 21:23:02 19.9 C 10.31 g/m*3 19.9 C 0 km/h
1554 11-08-2008 21:35:02 19.7 C 10.19 g/m*3 19.7 C 0 km/h
1555 11-08-2008 21:47:02 19.9 C 10.14 g/m*3 19.9 C 0 km/h
1556 11-08-2008 21:59:02 20.1 C 10.08 g/m*3 20.1 C 0 km/h
1557 11-08-2008 22:11:03 19.8 C 10.25 g/m*3 19.8 C 0 km/h
1558 11-08-2008 22:24:33 19.9 C 10.65 g/m*3 19.9 C 0 km/h
1559 11-08-2008 22:36:33 20 C 10.71 g/m*3 20 C 0 km/h
1560 11-08-2008 22:48:33 20 C 10.89 g/m*3 20 C 0 km/h
1561 11-08-2008 23:00:33 19.8 C 10.93 g/m*3 19.8 C 0 km/h
1562 11-08-2008 23:12:33 19.9 C 11.17 g/m*3 19.9 C 0 km/h
1563 11-08-2008 23:24:34 19.7 C 11.04 g/m*3 19.7 C 0 km/h
1564 11-08-2008 23:36:34 19.5 C 11.24 g/m*3 19.5 C 0 km/h
1565 11-08-2008 23:48:34 19.1 C 11.64 g/m*3 19.1 C 0 km/h
1566 12-08-2008 00:00:34 18.6 C 11.78 g/m*3 18.6 C 0 km/h
1567 12-08-2008 00:12:34 18.3 C 11.88 g/m*3 18.3 C 0 km/h
1568 12-08-2008 00:24:34 18.2 C 12.12 g/m*3 18.2 C 0 km/h
1569 12-08-2008 00:36:34 17.9 C 12.37 g/m*3 17.9 C 0 km/h
1570 12-08-2008 00:48:34 17.7 C 12.52 g/m*3 17.7 C 0 km/h
1571 12-08-2008 01:00:34 17.3 C 12.37 g/m*3 17.3 C 0 km/h
1572 12-08-2008 01:12:34 17 C 12.3 g/m*3 17 C 0 km/h
1573 12-08-2008 01:24:34 17.2 C 12.59 g/m*3 17.2 C 0 km/h
1574 12-08-2008 01:36:34 17.5 C 12.82 g/m*3 17.5 C 0 km/h
1575 12-08-2008 01:48:34 17.2 C 12.59 g/m*3 17.2 C 0 km/h
Sensor: Nr:Datum:Temp:Abs-Feuchte:Windchill:Wind:
Aussen-T/F 1576 12-08-2008 02:00:34 17.1 C 12.66 g/m*3 17.1 C 0 km/h
1577 12-08-2008 02:12:34 17 C 12.59 g/m*3 17 C 0 km/h
1578 12-08-2008 02:24:34 16.8 C 12.58 g/m*3 16.8 C 0 km/h
1579 12-08-2008 02:36:34 16.8 C 12.72 g/m*3 16.8 C 0 km/h
1580 12-08-2008 02:48:34 16.6 C 12.57 g/m*3 16.6 C 0 km/h
1581 12-08-2008 03:00:34 16.7 C 12.65 g/m*3 16.7 C 0 km/h
1582 12-08-2008 03:12:34 16.8 C 12.72 g/m*3 16.8 C 0 km/h
1583 12-08-2008 03:24:34 16.9 C 12.8 g/m*3 16.9 C 0 km/h
1584 12-08-2008 03:36:35 16.8 C 12.58 g/m*3 16.8 C 0 km/h
1585 12-08-2008 03:48:35 16.4 C 12.28 g/m*3 16.4 C 0 km/h
1586 12-08-2008 04:00:35 16.2 C 12.14 g/m*3 16.2 C 0 km/h
1587 12-08-2008 04:12:35 16 C 11.85 g/m*3 16 C 0 km/h
1588 12-08-2008 04:24:35 15.8 C 11.85 g/m*3 15.8 C 0 km/h
1589 12-08-2008 04:36:35 16 C 11.99 g/m*3 16 C 0 km/h
1590 12-08-2008 04:48:35 15.8 C 11.98 g/m*3 15.8 C 0 km/h
1591 12-08-2008 05:00:35 16 C 11.99 g/m*3 16 C 0 km/h
1592 12-08-2008 05:12:35 16.3 C 12.21 g/m*3 16.3 C 0 km/h
1593 12-08-2008 05:24:35 16.2 C 12.14 g/m*3 16.2 C 0 km/h
1594 12-08-2008 05:36:35 16.2 C 12 g/m*3 16.2 C 0 km/h
1595 12-08-2008 05:48:35 16.2 C 12 g/m*3 16.2 C 0 km/h
1596 12-08-2008 06:00:35 16.1 C 11.93 g/m*3 16.1 C 0 km/h
1597 12-08-2008 06:12:35 16 C 11.85 g/m*3 16 C 0 km/h
1598 12-08-2008 06:24:35 16 C 11.85 g/m*3 16 C 0 km/h
1599 12-08-2008 06:36:35 16.1 C 12.06 g/m*3 16.1 C 0 km/h
1600 12-08-2008 06:48:35 16 C 11.85 g/m*3 16 C 0 km/h
Sensor: Nr:Datum:Temp:Abs-Feuchte:Windchill:Wind:
Aussen-T/F 1601 12-08-2008 07:00:35 16.1 C 12.06 g/m*3 16.1 C 0 km/h
1602 12-08-2008 07:12:04 16.1 C 12.06 g/m*3 16.1 C 0 km/h
1603 12-08-2008 07:24:03 16.1 C 12.06 g/m*3 16.1 C 0 km/h
1604 12-08-2008 07:36:03 16.2 C 12.14 g/m*3 16.2 C 0 km/h
1605 12-08-2008 07:48:02 16.2 C 12.27 g/m*3 16.2 C 0 km/h
1606 12-08-2008 08:00:02 16.2 C 12.27 g/m*3 16.2 C 0 km/h
1607 12-08-2008 08:12:02 16.6 C 12.71 g/m*3 16.6 C 0 km/h
1608 12-08-2008 08:24:02 16.8 C 12.87 g/m*3 16.8 C 0 km/h
1609 12-08-2008 08:36:02 16.8 C 12.72 g/m*3 16.8 C 0 km/h
1610 12-08-2008 08:48:02 16.9 C 12.8 g/m*3 16.9 C 0 km/h
1611 12-08-2008 09:00:02 16.6 C 12.57 g/m*3 16.6 C 0 km/h
1612 12-08-2008 09:12:02 16.6 C 12.71 g/m*3 16.6 C 0 km/h
1613 12-08-2008 09:24:02 16.9 C 12.94 g/m*3 16.9 C 0 km/h
1614 12-08-2008 09:36:03 17 C 12.88 g/m*3 17 C 0 km/h
1615 12-08-2008 09:48:02 17.2 C 13.03 g/m*3 17.2 C 0 km/h
1616 12-08-2008 10:00:02 17.2 C 13.03 g/m*3 17.2 C 0 km/h
1617 12-08-2008 10:12:02 17.3 C 12.96 g/m*3 17.3 C 0 km/h
1618 12-08-2008 10:24:02 17.4 C 13.04 g/m*3 17.4 C 0 km/h
1619 12-08-2008 10:36:02 17.6 C 13.2 g/m*3 17.6 C 0 km/h
1620 12-08-2008 10:48:02 17.6 C 13.35 g/m*3 17.6 C 0 km/h
1621 12-08-2008 11:00:02 17.9 C 13.59 g/m*3 17.9 C 0 km/h
1622 12-08-2008 11:12:02 18 C 13.52 g/m*3 18 C 0 km/h
1623 12-08-2008 11:24:02 18.2 C 13.68 g/m*3 18.2 C 0 km/h
1624 12-08-2008 11:36:02 18.4 C 13.84 g/m*3 18.4 C 0 km/h
1625 12-08-2008 11:48:02 18.9 C 14.26 g/m*3 18.9 C 0 km/h
Sensor: Nr:Datum:Temp:Abs-Feuchte:Windchill:Wind:
Aussen-T/F 1626 12-08-2008 12:00:02 19.5 C 14.27 g/m*3 19.5 C 0 km/h
1627 12-08-2008 12:12:01 19.7 C 14.09 g/m*3 19.7 C 0 km/h
1628 12-08-2008 12:24:02 20.5 C 14.41 g/m*3 20.5 C 0 km/h
1629 12-08-2008 12:36:01 21.1 C 14.19 g/m*3 21.1 C 0 km/h
1630 12-08-2008 12:48:01 21.9 C 14.09 g/m*3 21.9 C 0 km/h
1631 12-08-2008 13:00:01 22.4 C 13.7 g/m*3 22.4 C 0 km/h
1632 12-08-2008 13:12:02 22.1 C 13.27 g/m*3 22.1 C 0 km/h
1633 12-08-2008 13:24:01 22.4 C 13.31 g/m*3 22.4 C 0 km/h
1634 12-08-2008 13:36:02 21.8 C 13.24 g/m*3 21.8 C 0 km/h
1635 12-08-2008 13:48:02 21.3 C 13.42 g/m*3 21.3 C 0 km/h
1636 12-08-2008 14:00:02 20.7 C 13.68 g/m*3 20.7 C 0 km/h
1637 12-08-2008 14:12:02 21.2 C 13.9 g/m*3 21.2 C 0 km/h
1638 12-08-2008 14:24:02 22.2 C 13.55 g/m*3 22.2 C 0 km/h
1639 12-08-2008 14:36:02 23.4 C 13.46 g/m*3 23.4 C 0 km/h
1640 12-08-2008 14:48:02 23.5 C 13.11 g/m*3 23.5 C 0 km/h
1641 12-08-2008 15:00:02 22.8 C 12.4 g/m*3 22.8 C 0 km/h
1642 12-08-2008 15:12:02 22.9 C 12.47 g/m*3 22.9 C 0 km/h
1643 12-08-2008 15:24:02 22.2 C 12.17 g/m*3 22.2 C 0 km/h
1644 12-08-2008 15:36:03 21.4 C 12.75 g/m*3 21.4 C 0 km/h
1645 12-08-2008 15:48:02 20.6 C 13.07 g/m*3 20.6 C 0 km/h
1646 12-08-2008 16:00:02 19.7 C 13.92 g/m*3 19.7 C 0 km/h
1647 12-08-2008 16:12:03 19.9 C 14.43 g/m*3 19.9 C 0 km/h
1648 12-08-2008 16:24:02 20.9 C 14.93 g/m*3 20.9 C 0 km/h
1649 12-08-2008 16:36:03 21.5 C 14.9 g/m*3 21.5 C 0 km/h
1650 12-08-2008 16:48:02 21.2 C 12.97 g/m*3 21.2 C 0 km/h
Sensor: Nr:Datum:Temp:Abs-Feuchte:Windchill:Wind:
Aussen-T/F 1651 12-08-2008 17:00:02 21.6 C 12.52 g/m*3 21.6 C 0 km/h
1652 12-08-2008 17:12:02 21.5 C 12.45 g/m*3 21.5 C 0 km/h
1653 12-08-2008 17:24:02 21.5 C 12.07 g/m*3 21.5 C 0 km/h
1654 12-08-2008 17:36:02 21.3 C 12.86 g/m*3 21.3 C 0 km/h
1655 12-08-2008 17:48:02 21.4 C 12.37 g/m*3 21.4 C 0 km/h
1656 12-08-2008 18:00:02 21.4 C 12 g/m*3 21.4 C 0 km/h
1657 12-08-2008 18:12:02 21.3 C 11.93 g/m*3 21.3 C 0 km/h
1658 12-08-2008 18:24:02 21.5 C 12.26 g/m*3 21.5 C 0 km/h
1659 12-08-2008 18:36:03 21.9 C 12.16 g/m*3 21.9 C 0 km/h
1660 12-08-2008 18:48:02 21.8 C 11.32 g/m*3 21.8 C 0 km/h
1661 12-08-2008 19:00:02 21.9 C 11.39 g/m*3 21.9 C 0 km/h
1662 12-08-2008 19:12:02 22.3 C 11.65 g/m*3 22.3 C 0 km/h
1663 12-08-2008 19:24:02 22.6 C 11.05 g/m*3 22.6 C 0 km/h
1664 12-08-2008 19:36:02 22.5 C 10.79 g/m*3 22.5 C 0 km/h
1665 12-08-2008 19:48:02 22.6 C 10.65 g/m*3 22.6 C 0 km/h
1666 12-08-2008 20:00:02 22.5 C 10.39 g/m*3 22.5 C 0 km/h
1667 12-08-2008 20:12:01 22.8 C 10.36 g/m*3 22.8 C 0 km/h
1668 12-08-2008 20:24:02 22.5 C 10.39 g/m*3 22.5 C 0 km/h
1669 12-08-2008 20:36:01 21.8 C 10.55 g/m*3 21.8 C 0 km/h
1670 12-08-2008 20:48:01 21.2 C 10.56 g/m*3 21.2 C 0 km/h
1671 12-08-2008 21:00:01 20.7 C 10.62 g/m*3 20.7 C 0 km/h
1672 12-08-2008 21:12:02 20.2 C 10.84 g/m*3 20.2 C 0 km/h
1673 12-08-2008 21:24:02 20 C 11.06 g/m*3 20 C 0 km/h
1674 12-08-2008 21:36:02 19.7 C 11.38 g/m*3 19.7 C 0 km/h
1675 12-08-2008 21:48:03 19.4 C 11.68 g/m*3 19.4 C 0 km/h
Sensor: Nr:Datum:Temp:Abs-Feuchte:Windchill:Wind:
Aussen-T/F 1676 12-08-2008 22:00:03 19.1 C 11.8 g/m*3 19.1 C 0 km/h
1677 12-08-2008 22:12:02 19 C 11.57 g/m*3 19 C 0 km/h
1678 12-08-2008 22:24:02 18.9 C 11.83 g/m*3 18.9 C 0 km/h
1679 12-08-2008 22:36:02 18.6 C 11.62 g/m*3 18.6 C 0 km/h
1680 12-08-2008 22:48:02 18.4 C 11.48 g/m*3 18.4 C 0 km/h
1681 12-08-2008 23:00:03 18.6 C 11.46 g/m*3 18.6 C 0 km/h
1682 12-08-2008 23:12:02 18.9 C 11.18 g/m*3 18.9 C 0 km/h
1683 12-08-2008 23:25:03 19.3 C 11.11 g/m*3 19.3 C 0 km/h
1684 12-08-2008 23:37:03 16.6 C 9.89 g/m*3 16.6 C 0 km/h
1685 12-08-2008 23:49:03 15.6 C 9.97 g/m*3 15.6 C 0 km/h

Legende:
   Min
   Max


Maximal/Minimal-Werte vom 17.04.2019 - 19.05.2019

Sensor Min Max Avg
Temp
(Aussen-T/F)
2.2 °C
13-05-2019  06:50:00
26.6 °C
24-04-2019  17:05:00
11.51 °C

Die Daten stammen von einer Davis Vantage Pro 2 Wetter-Station und werden unter Linux mit der Software wview2wettercgi und aufbereitet. Alle Angaben erfolgen ohne Gewähr für ihre Vollständigkeit oder Richtigkeit.
Kontakt: Rainer Krienke krienke@uni-koblenz.de . Meine Webseiten an der Uni Koblenz oder privat.
Version: $Revision: 0.78 $